BAW2064 FIMP-EGKK
Flight info
| Callsign | BAW2064 |
|---|---|
| Flight time | N/A |
| Altitude | 34000 |
| Route | OKMAR1 OKMAR UT665 AMBOD UA665 ANKOR/N0491F350 UM665 ITLOX/N0487F360 UM665 MAV UG300 GETOL/N0485F350 UM308 GWZ/N0483F370 UM308 KONET UG650 ULONI G650 RASKA/N0481F360 T513 EGMEG/N0480F370 G660 JDW/N0480F380 L677 CVO L617 TANSA UL613 RESTI/N0470F400 UL613 YNN UL611 TUMBO DCT OVVER DCT RODON DCT VAKSU DCT SPL DCT ROTAR DCT SAFFA DCT ELMUR DCT RIPUS DCT DITON DCT HOC DCT LUL DCT RLP DCT ROTSI DCT KOTUN DCT NINAL DCT KESAX DCT KUNAV KUNAV1G |
| Aircraft | B772/H-SDE1E3FGHIJ3J5J6M1M2P2RWXYZ/LB1D1 |
Departure
| Time | 2026-05-06 08:48 |
|---|---|
| Airport | Sir Seewoosagur Ramgoolam International Airport (FIMP) |
Arrival
| Time | N/A |
|---|---|
| Airport | London Gatwick Airport (EGKK) |
| Time | Latitude | Longitude | Altitude | Speed | Heading |
|---|---|---|---|---|---|
| 2026-05-06 08:41 | -20.43166 | 57.67850 | 190 ft | 0 kts | 210° |
| 2026-05-06 08:41 | -20.43152 | 57.67859 | 190 ft | 4 kts | 210° |
| 2026-05-06 08:42 | -20.43128 | 57.67874 | 190 ft | 4 kts | 211° |
| 2026-05-06 08:42 | -20.43109 | 57.67886 | 190 ft | 4 kts | 223° |
| 2026-05-06 08:42 | -20.43096 | 57.67904 | 203 ft | 4 kts | 263° |
| 2026-05-06 08:42 | -20.43099 | 57.67928 | 190 ft | 4 kts | 296° |
| 2026-05-06 08:43 | -20.43109 | 57.67948 | 190 ft | 1 kts | 297° |
| 2026-05-06 08:43 | -20.43111 | 57.67951 | 190 ft | 0 kts | 297° |
| 2026-05-06 08:45 | -20.43108 | 57.67945 | 190 ft | 6 kts | 297° |
| 2026-05-06 08:45 | -20.43067 | 57.67859 | 191 ft | 14 kts | 297° |
| 2026-05-06 08:45 | -20.43021 | 57.67764 | 202 ft | 14 kts | 297° |
| 2026-05-06 08:45 | -20.42973 | 57.67670 | 203 ft | 14 kts | 307° |
| 2026-05-06 08:46 | -20.42889 | 57.67613 | 197 ft | 14 kts | 330° |
| 2026-05-06 08:46 | -20.42806 | 57.67553 | 194 ft | 14 kts | 322° |
| 2026-05-06 08:46 | -20.42724 | 57.67491 | 192 ft | 14 kts | 332° |
| 2026-05-06 08:46 | -20.42637 | 57.67468 | 196 ft | 8 kts | 15° |
| 2026-05-06 08:47 | -20.42627 | 57.67529 | 210 ft | 17 kts | 111° |
| 2026-05-06 08:47 | -20.42779 | 57.67847 | 199 ft | 85 kts | 117° |
| 2026-05-06 08:47 | -20.43162 | 57.68642 | 179 ft | 154 kts | 117° |
| 2026-05-06 08:47 | -20.43730 | 57.69819 | 388 ft | 192 kts | 116° |
| 2026-05-06 08:48 | -20.44346 | 57.71089 | 1281 ft | 194 kts | 116° |
| 2026-05-06 08:48 | -20.44996 | 57.72436 | 1687 ft | 214 kts | 116° |
| 2026-05-06 08:48 | -20.45698 | 57.73899 | 1939 ft | 228 kts | 116° |
| 2026-05-06 08:48 | -20.46209 | 57.75538 | 2062 ft | 242 kts | 89° |
| 2026-05-06 08:49 | -20.45773 | 57.77282 | 2486 ft | 251 kts | 57° |
| 2026-05-06 08:49 | -20.44504 | 57.78575 | 3019 ft | 257 kts | 36° |
| 2026-05-06 08:49 | -20.43030 | 57.79630 | 3568 ft | 260 kts | 36° |
| 2026-05-06 08:49 | -20.41521 | 57.80696 | 4203 ft | 261 kts | 35° |
| 2026-05-06 08:50 | -20.39888 | 57.81548 | 4684 ft | 267 kts | 13° |
| 2026-05-06 08:50 | -20.38019 | 57.81503 | 5203 ft | 274 kts | 346° |
| 2026-05-06 08:50 | -20.36279 | 57.80672 | 5722 ft | 276 kts | 333° |
| 2026-05-06 08:50 | -20.34580 | 57.79684 | 6285 ft | 279 kts | 333° |
| 2026-05-06 08:51 | -20.32880 | 57.78678 | 6944 ft | 280 kts | 332° |
| 2026-05-06 08:51 | -20.31165 | 57.77663 | 7512 ft | 283 kts | 332° |
| 2026-05-06 08:51 | -20.29430 | 57.76645 | 8095 ft | 286 kts | 332° |
| 2026-05-06 08:51 | -20.27678 | 57.75618 | 8653 ft | 288 kts | 333° |
| 2026-05-06 08:52 | -20.25913 | 57.74584 | 9148 ft | 292 kts | 333° |
| 2026-05-06 08:52 | -20.24124 | 57.73539 | 9667 ft | 294 kts | 333° |
| 2026-05-06 08:52 | -20.22318 | 57.72486 | 10198 ft | 297 kts | 333° |
| 2026-05-06 08:52 | -20.20493 | 57.71425 | 10641 ft | 304 kts | 333° |
| 2026-05-06 08:53 | -20.18583 | 57.70316 | 10793 ft | 322 kts | 333° |
| 2026-05-06 08:53 | -20.16565 | 57.69142 | 10939 ft | 339 kts | 332° |
| 2026-05-06 08:53 | -20.14435 | 57.67907 | 11082 ft | 358 kts | 332° |
| 2026-05-06 08:53 | -20.12199 | 57.66607 | 11290 ft | 374 kts | 332° |
| 2026-05-06 08:54 | -20.09883 | 57.65263 | 11668 ft | 384 kts | 332° |
| 2026-05-06 08:54 | -20.07515 | 57.63889 | 12190 ft | 390 kts | 332° |
| 2026-05-06 08:54 | -20.05122 | 57.62502 | 12807 ft | 393 kts | 332° |
| 2026-05-06 08:54 | -20.02748 | 57.61128 | 13423 ft | 395 kts | 332° |
| 2026-05-06 08:55 | -20.00327 | 57.59711 | 13950 ft | 399 kts | 330° |
| 2026-05-06 08:55 | -19.98005 | 57.58052 | 14456 ft | 405 kts | 323° |
| 2026-05-06 08:55 | -19.95786 | 57.56185 | 15062 ft | 408 kts | 321° |
| 2026-05-06 08:55 | -19.93599 | 57.54239 | 15687 ft | 411 kts | 320° |
| 2026-05-06 08:56 | -19.91407 | 57.52270 | 16261 ft | 415 kts | 320° |
| 2026-05-06 08:56 | -19.89186 | 57.50295 | 16826 ft | 419 kts | 320° |
| 2026-05-06 08:56 | -19.86928 | 57.48314 | 17402 ft | 422 kts | 320° |
| 2026-05-06 08:56 | -19.84644 | 57.46332 | 17989 ft | 425 kts | 320° |
| 2026-05-06 08:57 | -19.82333 | 57.44343 | 18494 ft | 430 kts | 320° |
| 2026-05-06 08:57 | -19.79995 | 57.42340 | 19053 ft | 433 kts | 321° |
| 2026-05-06 08:57 | -19.77644 | 57.40331 | 19661 ft | 435 kts | 321° |
| 2026-05-06 08:57 | -19.75275 | 57.38311 | 20245 ft | 438 kts | 321° |
| 2026-05-06 08:58 | -19.72888 | 57.36278 | 20785 ft | 441 kts | 321° |
| 2026-05-06 08:58 | -19.70489 | 57.34236 | 21332 ft | 444 kts | 321° |
| 2026-05-06 08:58 | -19.68074 | 57.32179 | 21845 ft | 446 kts | 321° |
| 2026-05-06 08:58 | -19.65644 | 57.30110 | 22351 ft | 449 kts | 321° |
| 2026-05-06 08:59 | -19.63199 | 57.28031 | 22842 ft | 452 kts | 321° |
| 2026-05-06 08:59 | -19.60744 | 57.25942 | 23315 ft | 454 kts | 321° |
| 2026-05-06 08:59 | -19.58272 | 57.23839 | 23762 ft | 456 kts | 321° |
| 2026-05-06 08:59 | -19.55792 | 57.21728 | 24192 ft | 459 kts | 321° |
| 2026-05-06 09:00 | -19.54140 | 57.20324 | 24470 ft | 460 kts | 321° |
| 2026-05-06 09:00 | -19.51635 | 57.18195 | 24871 ft | 463 kts | 321° |
| 2026-05-06 09:00 | -19.49116 | 57.16055 | 25259 ft | 465 kts | 321° |
| 2026-05-06 09:00 | -19.46582 | 57.13905 | 25629 ft | 468 kts | 321° |
| 2026-05-06 09:01 | -19.43202 | 57.11039 | 26050 ft | 472 kts | 321° |
| 2026-05-06 09:01 | -19.40636 | 57.08864 | 26384 ft | 474 kts | 321° |
| 2026-05-06 09:01 | -19.38056 | 57.06677 | 26719 ft | 476 kts | 321° |
| 2026-05-06 09:01 | -19.35466 | 57.04482 | 27048 ft | 478 kts | 321° |
| 2026-05-06 09:02 | -19.33708 | 57.02993 | 27256 ft | 479 kts | 321° |
| 2026-05-06 09:02 | -19.31103 | 57.00786 | 27555 ft | 481 kts | 321° |
| 2026-05-06 09:02 | -19.28486 | 56.98569 | 27837 ft | 483 kts | 321° |
| 2026-05-06 09:02 | -19.25859 | 56.96345 | 28100 ft | 485 kts | 321° |
| 2026-05-06 09:03 | -19.23219 | 56.94112 | 28356 ft | 487 kts | 320° |
| 2026-05-06 09:03 | -19.20606 | 56.91904 | 28613 ft | 488 kts | 321° |
| 2026-05-06 09:03 | -19.17949 | 56.89660 | 28862 ft | 489 kts | 320° |
| 2026-05-06 09:03 | -19.15285 | 56.87410 | 29098 ft | 491 kts | 320° |
| 2026-05-06 09:04 | -19.12614 | 56.85153 | 29309 ft | 492 kts | 320° |
| 2026-05-06 09:04 | -19.09931 | 56.82889 | 29506 ft | 494 kts | 320° |
| 2026-05-06 09:04 | -19.07243 | 56.80622 | 29701 ft | 495 kts | 320° |
| 2026-05-06 09:04 | -19.04547 | 56.78350 | 29925 ft | 495 kts | 320° |
| 2026-05-06 09:05 | -19.01856 | 56.76083 | 30162 ft | 495 kts | 320° |
| 2026-05-06 09:05 | -18.96437 | 56.71517 | 30363 ft | 501 kts | 320° |
| 2026-05-06 09:05 | -18.93716 | 56.69225 | 30600 ft | 500 kts | 320° |
| 2026-05-06 09:06 | -18.91005 | 56.66944 | 30906 ft | 498 kts | 320° |
| 2026-05-06 09:06 | -18.88298 | 56.64668 | 31176 ft | 497 kts | 320° |
| 2026-05-06 09:06 | -18.85592 | 56.62393 | 31396 ft | 496 kts | 320° |
| 2026-05-06 09:06 | -18.82888 | 56.60121 | 31605 ft | 496 kts | 320° |
| 2026-05-06 09:07 | -18.80189 | 56.57853 | 31809 ft | 496 kts | 320° |
| 2026-05-06 09:07 | -18.77487 | 56.55587 | 32021 ft | 496 kts | 320° |
| 2026-05-06 09:07 | -18.74794 | 56.53326 | 32234 ft | 495 kts | 320° |
| 2026-05-06 09:07 | -18.72136 | 56.51096 | 32430 ft | 495 kts | 320° |
| 2026-05-06 09:08 | -18.69442 | 56.48837 | 32645 ft | 494 kts | 320° |
| 2026-05-06 09:08 | -18.66753 | 56.46582 | 32848 ft | 493 kts | 320° |
| 2026-05-06 09:08 | -18.64067 | 56.44331 | 33032 ft | 493 kts | 320° |
| 2026-05-06 09:08 | -18.61383 | 56.42084 | 33214 ft | 493 kts | 320° |
| 2026-05-06 09:09 | -18.58703 | 56.39840 | 33385 ft | 492 kts | 320° |
| 2026-05-06 09:09 | -18.56029 | 56.37602 | 33571 ft | 491 kts | 320° |
| 2026-05-06 09:09 | -18.53351 | 56.35362 | 33742 ft | 490 kts | 320° |
| 2026-05-06 09:09 | -18.50680 | 56.33128 | 33908 ft | 490 kts | 320° |
| 2026-05-06 09:10 | -18.48006 | 56.30893 | 33966 ft | 492 kts | 320° |
| 2026-05-06 09:10 | -18.42644 | 56.26413 | 34006 ft | 490 kts | 320° |
| 2026-05-06 09:11 | -18.37312 | 56.21963 | 34014 ft | 488 kts | 320° |
| 2026-05-06 09:11 | -18.32003 | 56.17535 | 34019 ft | 486 kts | 320° |
| 2026-05-06 09:12 | -18.26704 | 56.13117 | 34018 ft | 486 kts | 320° |
| 2026-05-06 09:12 | -18.21404 | 56.08704 | 34017 ft | 486 kts | 319° |
| 2026-05-06 09:13 | -18.15944 | 56.04501 | 34025 ft | 487 kts | 324° |
| 2026-05-06 09:13 | -18.10255 | 56.00599 | 34018 ft | 489 kts | 325° |
| 2026-05-06 09:14 | -18.04556 | 55.96697 | 34019 ft | 489 kts | 324° |
| 2026-05-06 09:14 | -17.98876 | 55.92738 | 34018 ft | 490 kts | 324° |
| 2026-05-06 09:15 | -17.93251 | 55.88789 | 34018 ft | 490 kts | 324° |
| 2026-05-06 09:15 | -17.87579 | 55.84810 | 34019 ft | 490 kts | 324° |
| 2026-05-06 09:16 | -17.81908 | 55.80838 | 34020 ft | 490 kts | 324° |
| 2026-05-06 09:16 | -17.76243 | 55.76874 | 34018 ft | 489 kts | 324° |
| 2026-05-06 09:17 | -17.70580 | 55.72916 | 34011 ft | 489 kts | 324° |
| 2026-05-06 09:17 | -17.64924 | 55.68964 | 34009 ft | 488 kts | 324° |
| 2026-05-06 09:18 | -17.59268 | 55.65017 | 34010 ft | 488 kts | 324° |
| 2026-05-06 09:18 | -17.53616 | 55.61074 | 34008 ft | 487 kts | 324° |
| 2026-05-06 09:19 | -17.48010 | 55.57165 | 34010 ft | 487 kts | 324° |
| 2026-05-06 09:19 | -17.42378 | 55.53221 | 34015 ft | 487 kts | 323° |
| 2026-05-06 09:20 | -17.36754 | 55.49269 | 34011 ft | 487 kts | 323° |
| 2026-05-06 09:20 | -17.31119 | 55.45346 | 34011 ft | 487 kts | 324° |
| 2026-05-06 09:21 | -17.25475 | 55.41435 | 34003 ft | 486 kts | 324° |
| 2026-05-06 09:21 | -17.19836 | 55.37527 | 33999 ft | 486 kts | 324° |
| 2026-05-06 09:22 | -17.14210 | 55.33627 | 34002 ft | 485 kts | 324° |
| 2026-05-06 09:22 | -17.08591 | 55.29730 | 33999 ft | 484 kts | 324° |
| 2026-05-06 09:23 | -17.02975 | 55.25839 | 34001 ft | 484 kts | 323° |
| 2026-05-06 09:23 | -16.97361 | 55.21955 | 33999 ft | 484 kts | 323° |
| 2026-05-06 09:24 | -16.91793 | 55.18101 | 34001 ft | 483 kts | 323° |
| 2026-05-06 09:24 | -16.86183 | 55.14224 | 34000 ft | 483 kts | 323° |
| 2026-05-06 09:25 | -16.80575 | 55.10351 | 33999 ft | 483 kts | 323° |
| 2026-05-06 09:25 | -16.74966 | 55.06479 | 34002 ft | 483 kts | 323° |
| 2026-05-06 09:26 | -16.69362 | 55.02614 | 33999 ft | 483 kts | 323° |
| 2026-05-06 09:26 | -16.63761 | 54.98754 | 34000 ft | 482 kts | 323° |
| 2026-05-06 09:27 | -16.58159 | 54.94897 | 33999 ft | 482 kts | 323° |
| 2026-05-06 09:27 | -16.52560 | 54.91045 | 33999 ft | 482 kts | 323° |
| 2026-05-06 09:28 | -16.46962 | 54.87194 | 34001 ft | 482 kts | 323° |
| 2026-05-06 09:28 | -16.41362 | 54.83344 | 33998 ft | 482 kts | 323° |
| 2026-05-06 09:29 | -16.35800 | 54.79525 | 33994 ft | 482 kts | 323° |
| 2026-05-06 09:29 | -16.30198 | 54.75682 | 33991 ft | 482 kts | 323° |
| 2026-05-06 09:30 | -16.24600 | 54.71842 | 33990 ft | 482 kts | 323° |
| 2026-05-06 09:30 | -16.19002 | 54.68004 | 33991 ft | 482 kts | 323° |
| 2026-05-06 09:31 | -16.13401 | 54.64167 | 33992 ft | 482 kts | 323° |
| 2026-05-06 09:31 | -16.07804 | 54.60334 | 33989 ft | 482 kts | 323° |
| 2026-05-06 09:32 | -16.02204 | 54.56506 | 33992 ft | 482 kts | 323° |
| 2026-05-06 09:32 | -15.96608 | 54.52680 | 33990 ft | 482 kts | 323° |
| 2026-05-06 09:33 | -15.91007 | 54.48858 | 33991 ft | 481 kts | 323° |
| 2026-05-06 09:33 | -15.85412 | 54.45047 | 33989 ft | 481 kts | 323° |
| 2026-05-06 09:34 | -15.79819 | 54.41237 | 33990 ft | 480 kts | 323° |
| 2026-05-06 09:34 | -15.74264 | 54.37453 | 33991 ft | 480 kts | 323° |
| 2026-05-06 09:35 | -15.68680 | 54.33653 | 33992 ft | 480 kts | 323° |
| 2026-05-06 09:35 | -15.63091 | 54.29847 | 33991 ft | 481 kts | 323° |
| 2026-05-06 09:36 | -15.57496 | 54.26043 | 33991 ft | 481 kts | 323° |
| 2026-05-06 09:36 | -15.51899 | 54.22244 | 33991 ft | 481 kts | 323° |
| 2026-05-06 09:37 | -15.46294 | 54.18438 | 33983 ft | 481 kts | 323° |
| 2026-05-06 09:37 | -15.40690 | 54.14636 | 33981 ft | 481 kts | 323° |
| 2026-05-06 09:38 | -15.35087 | 54.10837 | 33982 ft | 481 kts | 323° |
| 2026-05-06 09:38 | -15.29487 | 54.07045 | 33981 ft | 481 kts | 323° |
| 2026-05-06 09:39 | -15.23888 | 54.03252 | 33982 ft | 481 kts | 323° |
| 2026-05-06 09:39 | -15.18291 | 53.99464 | 33980 ft | 480 kts | 323° |
| 2026-05-06 09:40 | -15.12695 | 53.95678 | 33981 ft | 481 kts | 323° |
| 2026-05-06 09:40 | -15.04278 | 53.89990 | 33983 ft | 482 kts | 323° |
| 2026-05-06 09:41 | -14.98654 | 53.86194 | 33983 ft | 483 kts | 323° |
| 2026-05-06 09:41 | -14.93016 | 53.82392 | 33981 ft | 484 kts | 323° |
| 2026-05-06 09:42 | -14.87373 | 53.78590 | 33983 ft | 484 kts | 323° |
| 2026-05-06 09:42 | -14.81735 | 53.74794 | 33980 ft | 483 kts | 323° |
| 2026-05-06 09:43 | -14.76102 | 53.71001 | 33982 ft | 483 kts | 323° |
| 2026-05-06 09:43 | -14.70510 | 53.67237 | 33979 ft | 483 kts | 323° |
| 2026-05-06 09:44 | -14.64883 | 53.63450 | 33971 ft | 483 kts | 323° |
| 2026-05-06 09:44 | -14.59255 | 53.59670 | 33970 ft | 483 kts | 323° |
| 2026-05-06 09:45 | -14.53628 | 53.55892 | 33971 ft | 482 kts | 323° |
| 2026-05-06 09:45 | -14.48005 | 53.52115 | 33968 ft | 482 kts | 323° |
| 2026-05-06 09:46 | -14.42378 | 53.48342 | 33970 ft | 482 kts | 323° |
| 2026-05-06 09:46 | -14.36750 | 53.44569 | 33975 ft | 483 kts | 323° |
| 2026-05-06 09:47 | -14.31119 | 53.40796 | 33973 ft | 482 kts | 323° |
| 2026-05-06 09:47 | -14.25487 | 53.37025 | 33974 ft | 483 kts | 323° |
| 2026-05-06 09:48 | -14.19853 | 53.33254 | 33974 ft | 483 kts | 323° |
| 2026-05-06 09:48 | -14.14217 | 53.29488 | 33976 ft | 483 kts | 323° |
| 2026-05-06 09:49 | -14.08575 | 53.25713 | 33977 ft | 483 kts | 323° |
| 2026-05-06 09:49 | -14.02935 | 53.21946 | 33975 ft | 483 kts | 323° |
| 2026-05-06 09:50 | -13.97325 | 53.18201 | 33968 ft | 483 kts | 323° |
| 2026-05-06 09:50 | -13.91680 | 53.14434 | 33967 ft | 484 kts | 323° |
| 2026-05-06 09:51 | -13.86032 | 53.10670 | 33961 ft | 484 kts | 323° |
| 2026-05-06 09:51 | -13.80382 | 53.06904 | 33966 ft | 484 kts | 323° |
| 2026-05-06 09:52 | -13.74733 | 53.03141 | 33963 ft | 484 kts | 323° |
| 2026-05-06 09:52 | -13.70030 | 53.00012 | 33961 ft | 484 kts | 323° |
| 2026-05-06 09:53 | -13.64378 | 52.96252 | 33964 ft | 484 kts | 323° |
| 2026-05-06 09:53 | -13.57807 | 52.91880 | 33963 ft | 484 kts | 323° |
| 2026-05-06 09:54 | -13.53070 | 52.88732 | 33963 ft | 484 kts | 323° |
| 2026-05-06 09:54 | -13.47406 | 52.84973 | 33964 ft | 485 kts | 323° |
| 2026-05-06 09:55 | -13.41784 | 52.81240 | 33962 ft | 485 kts | 323° |
| 2026-05-06 09:55 | -13.36117 | 52.77480 | 33961 ft | 485 kts | 323° |
| 2026-05-06 09:56 | -13.30450 | 52.73722 | 33960 ft | 485 kts | 323° |
| 2026-05-06 09:56 | -13.24782 | 52.69966 | 33935 ft | 485 kts | 323° |
| 2026-05-06 09:57 | -13.19118 | 52.66218 | 33951 ft | 484 kts | 323° |
| 2026-05-06 09:57 | -13.13456 | 52.62469 | 33952 ft | 484 kts | 324° |
| 2026-05-06 09:58 | -13.07792 | 52.58720 | 33936 ft | 485 kts | 324° |
| 2026-05-06 09:58 | -13.02126 | 52.54973 | 33936 ft | 484 kts | 324° |
| 2026-05-06 09:59 | -12.96462 | 52.51232 | 33948 ft | 484 kts | 324° |
| 2026-05-06 09:59 | -12.90798 | 52.47491 | 33951 ft | 484 kts | 324° |
| 2026-05-06 10:00 | -12.85136 | 52.43753 | 33935 ft | 484 kts | 324° |
| 2026-05-06 10:00 | -12.79473 | 52.40018 | 33936 ft | 484 kts | 324° |
| 2026-05-06 10:01 | -12.73848 | 52.36308 | 33936 ft | 484 kts | 324° |
| 2026-05-06 10:01 | -12.68184 | 52.32575 | 33935 ft | 484 kts | 324° |
| 2026-05-06 10:02 | -12.62527 | 52.28847 | 33934 ft | 484 kts | 324° |
| 2026-05-06 10:02 | -12.56868 | 52.25121 | 33936 ft | 484 kts | 324° |
| 2026-05-06 10:03 | -12.51205 | 52.21395 | 33931 ft | 484 kts | 324° |
| 2026-05-06 10:03 | -12.45542 | 52.17669 | 33936 ft | 483 kts | 324° |
| 2026-05-06 10:04 | -12.39892 | 52.13946 | 33934 ft | 483 kts | 324° |
| 2026-05-06 10:04 | -12.34238 | 52.10225 | 33934 ft | 483 kts | 324° |
| 2026-05-06 10:05 | -12.28584 | 52.06507 | 33951 ft | 483 kts | 324° |
| 2026-05-06 10:05 | -12.22931 | 52.02789 | 33948 ft | 483 kts | 324° |
| 2026-05-06 10:06 | -12.17278 | 51.99073 | 33950 ft | 483 kts | 324° |
| 2026-05-06 10:06 | -12.11658 | 51.95379 | 33936 ft | 483 kts | 324° |
| 2026-05-06 10:07 | -12.06010 | 51.91673 | 33934 ft | 483 kts | 324° |
| 2026-05-06 10:07 | -12.00358 | 51.87962 | 33952 ft | 483 kts | 324° |
| 2026-05-06 10:08 | -11.94706 | 51.84254 | 33952 ft | 483 kts | 324° |
| 2026-05-06 10:08 | -11.89054 | 51.80548 | 33934 ft | 483 kts | 324° |
| 2026-05-06 10:09 | -11.83400 | 51.76843 | 33936 ft | 483 kts | 324° |
| 2026-05-06 10:09 | -11.77740 | 51.73136 | 33932 ft | 483 kts | 324° |
| 2026-05-06 10:10 | -11.72081 | 51.69431 | 33931 ft | 484 kts | 324° |
| 2026-05-06 10:10 | -11.66416 | 51.65724 | 33936 ft | 483 kts | 324° |
| 2026-05-06 10:11 | -11.60749 | 51.62025 | 33929 ft | 484 kts | 324° |
| 2026-05-06 10:11 | -11.55081 | 51.58328 | 33951 ft | 484 kts | 324° |
| 2026-05-06 10:12 | -11.49410 | 51.54632 | 33948 ft | 484 kts | 325° |
| 2026-05-06 10:12 | -11.43741 | 51.50938 | 33935 ft | 484 kts | 324° |
| 2026-05-06 10:13 | -11.38067 | 51.47241 | 33938 ft | 484 kts | 325° |
| 2026-05-06 10:13 | -11.32393 | 51.43547 | 33956 ft | 484 kts | 325° |
| 2026-05-06 10:14 | -11.26715 | 51.39851 | 33950 ft | 484 kts | 325° |
| 2026-05-06 10:14 | -11.21034 | 51.36155 | 33935 ft | 485 kts | 325° |
| 2026-05-06 10:15 | -11.15352 | 51.32459 | 33956 ft | 485 kts | 325° |
| 2026-05-06 10:15 | -11.09660 | 51.28759 | 33933 ft | 485 kts | 325° |
| 2026-05-06 10:16 | -11.03973 | 51.25065 | 33934 ft | 485 kts | 325° |
| 2026-05-06 10:16 | -10.98324 | 51.21394 | 33935 ft | 485 kts | 325° |
| 2026-05-06 10:17 | -10.92638 | 51.17704 | 33935 ft | 485 kts | 325° |
| 2026-05-06 10:17 | -10.86945 | 51.14009 | 33936 ft | 485 kts | 325° |
| 2026-05-06 10:18 | -10.81252 | 51.10320 | 33934 ft | 485 kts | 326° |
| 2026-05-06 10:18 | -10.75554 | 51.06628 | 33931 ft | 485 kts | 326° |
| 2026-05-06 10:19 | -10.69861 | 51.02938 | 33935 ft | 485 kts | 326° |
| 2026-05-06 10:19 | -10.64171 | 50.99251 | 33936 ft | 485 kts | 326° |
| 2026-05-06 10:20 | -10.58476 | 50.95564 | 33936 ft | 485 kts | 326° |
| 2026-05-06 10:20 | -10.52782 | 50.91883 | 33929 ft | 485 kts | 326° |
| 2026-05-06 10:21 | -10.47091 | 50.88201 | 33949 ft | 485 kts | 326° |
| 2026-05-06 10:21 | -10.41400 | 50.84520 | 33932 ft | 485 kts | 326° |
| 2026-05-06 10:22 | -10.35705 | 50.80840 | 33933 ft | 485 kts | 326° |
| 2026-05-06 10:22 | -10.30044 | 50.77184 | 33936 ft | 485 kts | 326° |
| 2026-05-06 10:23 | -10.24337 | 50.73501 | 33936 ft | 486 kts | 326° |
| 2026-05-06 10:23 | -10.18638 | 50.69822 | 33934 ft | 485 kts | 326° |
| 2026-05-06 10:24 | -10.12938 | 50.66145 | 33936 ft | 485 kts | 326° |
| 2026-05-06 10:24 | -10.07237 | 50.62467 | 33933 ft | 485 kts | 326° |
| 2026-05-06 10:25 | -10.01538 | 50.58792 | 33935 ft | 485 kts | 326° |
| 2026-05-06 10:25 | -9.95839 | 50.55119 | 33971 ft | 487 kts | 327° |
| 2026-05-06 10:26 | -9.92979 | 50.53275 | 34129 ft | 486 kts | 327° |
| 2026-05-06 10:26 | -9.90130 | 50.51438 | 34348 ft | 485 kts | 327° |
| 2026-05-06 10:26 | -9.87289 | 50.49606 | 34554 ft | 483 kts | 327° |
| 2026-05-06 10:26 | -9.84454 | 50.47778 | 34712 ft | 483 kts | 327° |
| 2026-05-06 10:27 | -9.81611 | 50.45943 | 34820 ft | 484 kts | 327° |
| 2026-05-06 10:27 | -9.78766 | 50.44107 | 34881 ft | 485 kts | 327° |
| 2026-05-06 10:27 | -9.73109 | 50.40459 | 34928 ft | 483 kts | 327° |
| 2026-05-06 10:28 | -9.67459 | 50.36820 | 34932 ft | 480 kts | 327° |
| 2026-05-06 10:28 | -9.61839 | 50.33195 | 34941 ft | 479 kts | 327° |
| 2026-05-06 10:29 | -9.56213 | 50.29578 | 34937 ft | 479 kts | 327° |
| 2026-05-06 10:29 | -9.50576 | 50.25951 | 34947 ft | 480 kts | 327° |
| 2026-05-06 10:30 | -9.44930 | 50.22317 | 34936 ft | 482 kts | 327° |
| 2026-05-06 10:30 | -9.39266 | 50.18674 | 34935 ft | 483 kts | 327° |
| 2026-05-06 10:31 | -9.33590 | 50.15026 | 34935 ft | 484 kts | 327° |
| 2026-05-06 10:31 | -9.27940 | 50.11398 | 34934 ft | 485 kts | 327° |
| 2026-05-06 10:32 | -9.22248 | 50.07742 | 34943 ft | 485 kts | 327° |
| 2026-05-06 10:32 | -9.16551 | 50.04082 | 34933 ft | 485 kts | 327° |
| 2026-05-06 10:33 | -9.10851 | 50.00423 | 34934 ft | 485 kts | 327° |
| 2026-05-06 10:33 | -9.05146 | 49.96763 | 34935 ft | 485 kts | 327° |
| 2026-05-06 10:34 | -8.99442 | 49.93110 | 34934 ft | 485 kts | 327° |
| 2026-05-06 10:34 | -8.93739 | 49.89449 | 34925 ft | 485 kts | 327° |
| 2026-05-06 10:35 | -8.88035 | 49.85795 | 34927 ft | 485 kts | 327° |
| 2026-05-06 10:35 | -8.82336 | 49.82145 | 34924 ft | 485 kts | 327° |
| 2026-05-06 10:36 | -8.76632 | 49.78492 | 34928 ft | 485 kts | 327° |
| 2026-05-06 10:36 | -8.70928 | 49.74843 | 34923 ft | 485 kts | 327° |
| 2026-05-06 10:37 | -8.65225 | 49.71193 | 34925 ft | 486 kts | 327° |
| 2026-05-06 10:37 | -8.59510 | 49.67537 | 34927 ft | 486 kts | 327° |
| 2026-05-06 10:38 | -8.53790 | 49.63878 | 34926 ft | 487 kts | 327° |
| 2026-05-06 10:38 | -8.48066 | 49.60219 | 34927 ft | 487 kts | 327° |
| 2026-05-06 10:39 | -8.42342 | 49.56563 | 34926 ft | 487 kts | 327° |
| 2026-05-06 10:39 | -8.36610 | 49.52901 | 34927 ft | 488 kts | 327° |
| 2026-05-06 10:40 | -8.30872 | 49.49235 | 34924 ft | 488 kts | 327° |
| 2026-05-06 10:40 | -8.25173 | 49.45601 | 34927 ft | 488 kts | 327° |
| 2026-05-06 10:41 | -8.19435 | 49.41939 | 34925 ft | 488 kts | 327° |
| 2026-05-06 10:41 | -8.13695 | 49.38280 | 34927 ft | 488 kts | 327° |
| 2026-05-06 10:42 | -8.07960 | 49.34624 | 34930 ft | 488 kts | 327° |
| 2026-05-06 10:42 | -8.02228 | 49.30967 | 34935 ft | 487 kts | 327° |
| 2026-05-06 10:43 | -7.96492 | 49.27311 | 34924 ft | 488 kts | 328° |
| 2026-05-06 10:44 | -7.87886 | 49.21832 | 34928 ft | 488 kts | 328° |
| 2026-05-06 10:44 | -7.82139 | 49.18176 | 34927 ft | 489 kts | 328° |
| 2026-05-06 10:45 | -7.77360 | 49.15135 | 34924 ft | 489 kts | 328° |
| 2026-05-06 10:45 | -7.71605 | 49.11471 | 34927 ft | 489 kts | 328° |
| 2026-05-06 10:46 | -7.65840 | 49.07804 | 34927 ft | 490 kts | 328° |
| 2026-05-06 10:46 | -7.60067 | 49.04133 | 34926 ft | 491 kts | 328° |
| 2026-05-06 10:47 | -7.54284 | 49.00456 | 34927 ft | 491 kts | 328° |
| 2026-05-06 10:47 | -7.48502 | 48.96781 | 34925 ft | 491 kts | 328° |
| 2026-05-06 10:48 | -7.42718 | 48.93107 | 34925 ft | 491 kts | 328° |
| 2026-05-06 10:48 | -7.36938 | 48.89437 | 34926 ft | 491 kts | 328° |
| 2026-05-06 10:49 | -7.31159 | 48.85766 | 34929 ft | 491 kts | 328° |
| 2026-05-06 10:49 | -7.25381 | 48.82099 | 34925 ft | 491 kts | 328° |
| 2026-05-06 10:50 | -7.19603 | 48.78434 | 34925 ft | 491 kts | 328° |
| 2026-05-06 10:50 | -7.13820 | 48.74765 | 34926 ft | 491 kts | 328° |
| 2026-05-06 10:51 | -7.08038 | 48.71097 | 34928 ft | 491 kts | 328° |
| 2026-05-06 10:51 | -7.02255 | 48.67431 | 34924 ft | 491 kts | 328° |
| 2026-05-06 10:52 | -6.96511 | 48.63794 | 34926 ft | 491 kts | 328° |
| 2026-05-06 10:52 | -6.90720 | 48.60132 | 34926 ft | 492 kts | 328° |
| 2026-05-06 10:53 | -6.84930 | 48.56470 | 34926 ft | 492 kts | 328° |
| 2026-05-06 10:53 | -6.79130 | 48.52804 | 34927 ft | 492 kts | 328° |
| 2026-05-06 10:54 | -6.73331 | 48.49138 | 34926 ft | 493 kts | 328° |
| 2026-05-06 10:54 | -6.67526 | 48.45469 | 34925 ft | 493 kts | 328° |
| 2026-05-06 10:55 | -6.61724 | 48.41804 | 34927 ft | 493 kts | 328° |
| 2026-05-06 10:55 | -6.55920 | 48.38136 | 34925 ft | 493 kts | 328° |
| 2026-05-06 10:56 | -6.50114 | 48.34469 | 34925 ft | 493 kts | 328° |
| 2026-05-06 10:56 | -6.44310 | 48.30805 | 34922 ft | 493 kts | 328° |
| 2026-05-06 10:57 | -6.38503 | 48.27141 | 34915 ft | 493 kts | 329° |
| 2026-05-06 10:57 | -6.32696 | 48.23476 | 34919 ft | 493 kts | 329° |
| 2026-05-06 10:58 | -6.26885 | 48.19810 | 34917 ft | 493 kts | 329° |
| 2026-05-06 10:58 | -6.21078 | 48.16143 | 34917 ft | 493 kts | 329° |
| 2026-05-06 10:59 | -6.15268 | 48.12481 | 34914 ft | 493 kts | 329° |
| 2026-05-06 10:59 | -6.09460 | 48.08823 | 34918 ft | 493 kts | 329° |
| 2026-05-06 11:00 | -6.03657 | 48.05166 | 34913 ft | 492 kts | 329° |
| 2026-05-06 11:00 | -5.97850 | 48.01508 | 34919 ft | 493 kts | 329° |
| 2026-05-06 11:01 | -5.92034 | 47.97848 | 34916 ft | 493 kts | 329° |
| 2026-05-06 11:01 | -5.86224 | 47.94187 | 34917 ft | 493 kts | 329° |
| 2026-05-06 11:02 | -5.80409 | 47.90526 | 34915 ft | 493 kts | 329° |
| 2026-05-06 11:02 | -5.74594 | 47.86867 | 34918 ft | 493 kts | 329° |
| 2026-05-06 11:03 | -5.68778 | 47.83206 | 34916 ft | 493 kts | 329° |
| 2026-05-06 11:03 | -5.62963 | 47.79548 | 34917 ft | 493 kts | 329° |
| 2026-05-06 11:04 | -5.57179 | 47.75913 | 34918 ft | 494 kts | 329° |
| 2026-05-06 11:04 | -5.51358 | 47.72253 | 34915 ft | 494 kts | 329° |
| 2026-05-06 11:05 | -5.45534 | 47.68589 | 34905 ft | 494 kts | 328° |
| 2026-05-06 11:05 | -5.39705 | 47.64925 | 34895 ft | 494 kts | 329° |
| 2026-05-06 11:06 | -5.33880 | 47.61267 | 34899 ft | 494 kts | 328° |
| 2026-05-06 11:06 | -5.28054 | 47.57608 | 34898 ft | 494 kts | 328° |
| 2026-05-06 11:07 | -5.22228 | 47.53950 | 34899 ft | 494 kts | 328° |
| 2026-05-06 11:07 | -5.16402 | 47.50289 | 34897 ft | 494 kts | 329° |
| 2026-05-06 11:08 | -5.10566 | 47.46626 | 34900 ft | 495 kts | 329° |
| 2026-05-06 11:08 | -5.04724 | 47.42958 | 34898 ft | 496 kts | 329° |
| 2026-05-06 11:09 | -4.98879 | 47.39291 | 34898 ft | 496 kts | 329° |
| 2026-05-06 11:09 | -4.93068 | 47.35647 | 34899 ft | 496 kts | 329° |
| 2026-05-06 11:10 | -4.87212 | 47.31973 | 34897 ft | 496 kts | 329° |
| 2026-05-06 11:10 | -4.81359 | 47.28303 | 34899 ft | 496 kts | 329° |
| 2026-05-06 11:11 | -4.75505 | 47.24631 | 34897 ft | 496 kts | 329° |
| 2026-05-06 11:11 | -4.69646 | 47.20959 | 34898 ft | 497 kts | 329° |
| 2026-05-06 11:12 | -4.63790 | 47.17289 | 34905 ft | 496 kts | 329° |
| 2026-05-06 11:12 | -4.57932 | 47.13619 | 34908 ft | 496 kts | 329° |
| 2026-05-06 11:13 | -4.52074 | 47.09946 | 34908 ft | 497 kts | 329° |
| 2026-05-06 11:13 | -4.46212 | 47.06275 | 34908 ft | 497 kts | 329° |
| 2026-05-06 11:14 | -4.40350 | 47.02607 | 34908 ft | 497 kts | 329° |
| 2026-05-06 11:14 | -4.34489 | 46.98937 | 34908 ft | 497 kts | 329° |
| 2026-05-06 11:15 | -4.28660 | 46.95287 | 34909 ft | 497 kts | 329° |
| 2026-05-06 11:15 | -4.22791 | 46.91609 | 34907 ft | 497 kts | 329° |
| 2026-05-06 11:16 | -4.16922 | 46.87941 | 34907 ft | 497 kts | 329° |
| 2026-05-06 11:16 | -4.11050 | 46.84273 | 34907 ft | 497 kts | 329° |
| 2026-05-06 11:17 | -4.05177 | 46.80605 | 34908 ft | 497 kts | 329° |
| 2026-05-06 11:17 | -3.99310 | 46.76937 | 34903 ft | 497 kts | 329° |
| 2026-05-06 11:18 | -3.93436 | 46.73270 | 34897 ft | 498 kts | 329° |
| 2026-05-06 11:18 | -3.87566 | 46.69601 | 34897 ft | 497 kts | 329° |
| 2026-05-06 11:19 | -3.81692 | 46.65933 | 34898 ft | 498 kts | 329° |
| 2026-05-06 11:19 | -3.75812 | 46.62261 | 34876 ft | 498 kts | 329° |
| 2026-05-06 11:20 | -3.69924 | 46.58586 | 34860 ft | 498 kts | 329° |
| 2026-05-06 11:20 | -3.64045 | 46.54913 | 34860 ft | 498 kts | 329° |
| 2026-05-06 11:21 | -3.58171 | 46.51246 | 34861 ft | 498 kts | 329° |
| 2026-05-06 11:21 | -3.52291 | 46.47579 | 34860 ft | 498 kts | 329° |
| 2026-05-06 11:22 | -3.46448 | 46.43935 | 34863 ft | 498 kts | 329° |
| 2026-05-06 11:22 | -3.40568 | 46.40266 | 34861 ft | 498 kts | 329° |
| 2026-05-06 11:23 | -3.34690 | 46.36597 | 34861 ft | 498 kts | 329° |
| 2026-05-06 11:23 | -3.28805 | 46.32925 | 34862 ft | 498 kts | 329° |
| 2026-05-06 11:24 | -3.22921 | 46.29257 | 34863 ft | 498 kts | 329° |
| 2026-05-06 11:24 | -3.17035 | 46.25590 | 34869 ft | 498 kts | 329° |
| 2026-05-06 11:25 | -3.11153 | 46.21923 | 34867 ft | 498 kts | 329° |
| 2026-05-06 11:25 | -3.05273 | 46.18256 | 34871 ft | 498 kts | 329° |
| 2026-05-06 11:26 | -2.99396 | 46.14591 | 34872 ft | 498 kts | 329° |
| 2026-05-06 11:26 | -2.93516 | 46.10927 | 34876 ft | 498 kts | 329° |
| 2026-05-06 11:27 | -2.87683 | 46.07296 | 34890 ft | 498 kts | 329° |
| 2026-05-06 11:27 | -2.81799 | 46.03627 | 34886 ft | 499 kts | 329° |
| 2026-05-06 11:28 | -2.75907 | 45.99956 | 34881 ft | 499 kts | 329° |
| 2026-05-06 11:28 | -2.70014 | 45.96287 | 34881 ft | 498 kts | 329° |
| 2026-05-06 11:29 | -2.64135 | 45.92626 | 34876 ft | 497 kts | 329° |
| 2026-05-06 11:29 | -2.58260 | 45.88966 | 34884 ft | 498 kts | 329° |
| 2026-05-06 11:30 | -2.52378 | 45.85304 | 34890 ft | 499 kts | 329° |
| 2026-05-06 11:30 | -2.46476 | 45.81629 | 34871 ft | 499 kts | 329° |
| 2026-05-06 11:31 | -2.40587 | 45.77963 | 34872 ft | 498 kts | 329° |
| 2026-05-06 11:31 | -2.34706 | 45.74299 | 34869 ft | 498 kts | 329° |
| 2026-05-06 11:32 | -2.28831 | 45.70643 | 34874 ft | 498 kts | 329° |
| 2026-05-06 11:32 | -2.22944 | 45.66979 | 34870 ft | 498 kts | 329° |
| 2026-05-06 11:33 | -2.17053 | 45.63313 | 34871 ft | 498 kts | 329° |
| 2026-05-06 11:33 | -2.11167 | 45.59651 | 34870 ft | 498 kts | 329° |
| 2026-05-06 11:34 | -2.05321 | 45.56012 | 34871 ft | 498 kts | 329° |
| 2026-05-06 11:34 | -1.99435 | 45.52351 | 34875 ft | 499 kts | 329° |
| 2026-05-06 11:35 | -1.93505 | 45.48742 | 34873 ft | 499 kts | 330° |
| 2026-05-06 11:35 | -1.87559 | 45.45164 | 34864 ft | 498 kts | 330° |
| 2026-05-06 11:36 | -1.82630 | 45.42190 | 34870 ft | 498 kts | 330° |
| 2026-05-06 11:36 | -1.76706 | 45.38605 | 34870 ft | 498 kts | 330° |
| 2026-05-06 11:37 | -1.70788 | 45.35025 | 34870 ft | 497 kts | 330° |
| 2026-05-06 11:37 | -1.64874 | 45.31448 | 34875 ft | 497 kts | 329° |
| 2026-05-06 11:38 | -1.58967 | 45.27871 | 34869 ft | 496 kts | 329° |
| 2026-05-06 11:38 | -1.53062 | 45.24297 | 34871 ft | 496 kts | 329° |
| 2026-05-06 11:39 | -1.47158 | 45.20727 | 34870 ft | 496 kts | 329° |
| 2026-05-06 11:39 | -1.41254 | 45.17154 | 34870 ft | 496 kts | 329° |
| 2026-05-06 11:40 | -1.35347 | 45.13580 | 34870 ft | 496 kts | 330° |
| 2026-05-06 11:40 | -1.29438 | 45.10004 | 34876 ft | 496 kts | 330° |
| 2026-05-06 11:41 | -1.23533 | 45.06433 | 34869 ft | 496 kts | 329° |
| 2026-05-06 11:41 | -1.17632 | 45.02865 | 34868 ft | 495 kts | 329° |
| 2026-05-06 11:42 | -1.11736 | 44.99387 | 35085 ft | 495 kts | 331° |
| 2026-05-06 11:42 | -1.08754 | 44.97674 | 35330 ft | 493 kts | 331° |
| 2026-05-06 11:42 | -1.05783 | 44.95972 | 35575 ft | 492 kts | 331° |
| 2026-05-06 11:42 | -1.02819 | 44.94270 | 35764 ft | 491 kts | 331° |
| 2026-05-06 11:43 | -0.99852 | 44.92563 | 35809 ft | 493 kts | 331° |
| 2026-05-06 11:43 | -0.93906 | 44.89128 | 35862 ft | 492 kts | 330° |
| 2026-05-06 11:44 | -0.85066 | 44.84013 | 35858 ft | 488 kts | 330° |
| 2026-05-06 11:44 | -0.79193 | 44.80614 | 35863 ft | 487 kts | 330° |
| 2026-05-06 11:45 | -0.73324 | 44.77222 | 35865 ft | 487 kts | 330° |
| 2026-05-06 11:45 | -0.67450 | 44.73822 | 35876 ft | 488 kts | 330° |
| 2026-05-06 11:46 | -0.61567 | 44.70417 | 35880 ft | 489 kts | 330° |
| 2026-05-06 11:46 | -0.55713 | 44.67029 | 35875 ft | 490 kts | 330° |
| 2026-05-06 11:47 | -0.49813 | 44.63617 | 35879 ft | 490 kts | 330° |
| 2026-05-06 11:47 | -0.43912 | 44.60204 | 35873 ft | 490 kts | 330° |
| 2026-05-06 11:48 | -0.38008 | 44.56789 | 35868 ft | 490 kts | 330° |
| 2026-05-06 11:48 | -0.32111 | 44.53378 | 35862 ft | 489 kts | 330° |
| 2026-05-06 11:49 | -0.26230 | 44.49976 | 35868 ft | 488 kts | 330° |
| 2026-05-06 11:49 | -0.20357 | 44.46579 | 35863 ft | 488 kts | 330° |
| 2026-05-06 11:50 | -0.14487 | 44.43184 | 35867 ft | 487 kts | 330° |
| 2026-05-06 11:50 | -0.08622 | 44.39789 | 35860 ft | 487 kts | 330° |
| 2026-05-06 11:51 | -0.02765 | 44.36399 | 35863 ft | 486 kts | 330° |
| 2026-05-06 11:51 | 0.03089 | 44.33017 | 35864 ft | 486 kts | 330° |
| 2026-05-06 11:52 | 0.08940 | 44.29631 | 35858 ft | 486 kts | 330° |
| 2026-05-06 11:52 | 0.14756 | 44.26269 | 35862 ft | 486 kts | 330° |
| 2026-05-06 11:53 | 0.20613 | 44.22881 | 35862 ft | 486 kts | 330° |
| 2026-05-06 11:53 | 0.26471 | 44.19490 | 35860 ft | 487 kts | 330° |
| 2026-05-06 11:54 | 0.32334 | 44.16097 | 35859 ft | 487 kts | 330° |
| 2026-05-06 11:54 | 0.38186 | 44.12677 | 35860 ft | 487 kts | 330° |
| 2026-05-06 11:55 | 0.44021 | 44.09237 | 35859 ft | 487 kts | 329° |
| 2026-05-06 11:55 | 0.49859 | 44.05794 | 35862 ft | 488 kts | 330° |
| 2026-05-06 11:56 | 0.55707 | 44.02352 | 35869 ft | 488 kts | 330° |
| 2026-05-06 11:56 | 0.61553 | 43.98911 | 35867 ft | 488 kts | 330° |
| 2026-05-06 11:57 | 0.67401 | 43.95473 | 35868 ft | 488 kts | 330° |
| 2026-05-06 11:57 | 0.73249 | 43.92035 | 35866 ft | 488 kts | 329° |
| 2026-05-06 11:58 | 0.79096 | 43.88592 | 35862 ft | 487 kts | 329° |
| 2026-05-06 11:58 | 0.84937 | 43.85153 | 35858 ft | 488 kts | 329° |
| 2026-05-06 11:59 | 0.90786 | 43.81712 | 35854 ft | 488 kts | 329° |
| 2026-05-06 11:59 | 0.96634 | 43.78270 | 35856 ft | 488 kts | 329° |
| 2026-05-06 12:00 | 1.02488 | 43.74825 | 35868 ft | 488 kts | 329° |
| 2026-05-06 12:00 | 1.08348 | 43.71378 | 35857 ft | 488 kts | 329° |
| 2026-05-06 12:01 | 1.14162 | 43.67958 | 35855 ft | 488 kts | 329° |
| 2026-05-06 12:01 | 1.20018 | 43.64510 | 35856 ft | 488 kts | 329° |
| 2026-05-06 12:02 | 1.25877 | 43.61058 | 35857 ft | 489 kts | 329° |
| 2026-05-06 12:02 | 1.31745 | 43.57600 | 35855 ft | 489 kts | 329° |
| 2026-05-06 12:03 | 1.37490 | 43.53953 | 35863 ft | 489 kts | 327° |
| 2026-05-06 12:03 | 1.43172 | 43.50208 | 35868 ft | 489 kts | 327° |
| 2026-05-06 12:04 | 1.48866 | 43.46482 | 35871 ft | 490 kts | 327° |
| 2026-05-06 12:04 | 1.54582 | 43.42778 | 35859 ft | 490 kts | 327° |
| 2026-05-06 12:05 | 1.60307 | 43.39073 | 35853 ft | 490 kts | 327° |
| 2026-05-06 12:05 | 1.66035 | 43.35372 | 35870 ft | 490 kts | 327° |
| 2026-05-06 12:06 | 1.71765 | 43.31666 | 35861 ft | 491 kts | 327° |
| 2026-05-06 12:06 | 1.77494 | 43.27957 | 35867 ft | 490 kts | 327° |
| 2026-05-06 12:07 | 1.83218 | 43.24252 | 35856 ft | 489 kts | 327° |
| 2026-05-06 12:07 | 1.88926 | 43.20556 | 35849 ft | 488 kts | 327° |
| 2026-05-06 12:08 | 1.94580 | 43.16893 | 35856 ft | 487 kts | 327° |
| 2026-05-06 12:08 | 2.00266 | 43.13212 | 35848 ft | 487 kts | 327° |
| 2026-05-06 12:09 | 2.05938 | 43.09522 | 35849 ft | 486 kts | 326° |
| 2026-05-06 12:09 | 2.11597 | 43.05822 | 35851 ft | 486 kts | 326° |
| 2026-05-06 12:10 | 2.17267 | 43.02113 | 35849 ft | 487 kts | 326° |
| 2026-05-06 12:10 | 2.22940 | 42.98403 | 35849 ft | 487 kts | 326° |
| 2026-05-06 12:11 | 2.28613 | 42.94696 | 35851 ft | 487 kts | 326° |
| 2026-05-06 12:11 | 2.34281 | 42.90990 | 35854 ft | 487 kts | 326° |
| 2026-05-06 12:12 | 2.39949 | 42.87285 | 35853 ft | 487 kts | 326° |
| 2026-05-06 12:12 | 2.45616 | 42.83581 | 35845 ft | 486 kts | 326° |
| 2026-05-06 12:13 | 2.51240 | 42.79904 | 35846 ft | 486 kts | 326° |
| 2026-05-06 12:13 | 2.56893 | 42.76206 | 35844 ft | 486 kts | 326° |
| 2026-05-06 12:14 | 2.62545 | 42.72508 | 35858 ft | 486 kts | 326° |
| 2026-05-06 12:14 | 2.68200 | 42.68811 | 35855 ft | 485 kts | 326° |
| 2026-05-06 12:15 | 2.73851 | 42.65115 | 35847 ft | 486 kts | 326° |
| 2026-05-06 12:15 | 2.79510 | 42.61412 | 35857 ft | 486 kts | 326° |
| 2026-05-06 12:16 | 2.85164 | 42.57714 | 35852 ft | 486 kts | 326° |
| 2026-05-06 12:16 | 2.90822 | 42.54012 | 35849 ft | 486 kts | 326° |
| 2026-05-06 12:17 | 2.96475 | 42.50311 | 35853 ft | 486 kts | 326° |
| 2026-05-06 12:17 | 3.02127 | 42.46612 | 35852 ft | 486 kts | 326° |
| 2026-05-06 12:18 | 3.07787 | 42.42906 | 35847 ft | 486 kts | 327° |
| 2026-05-06 12:18 | 3.13437 | 42.39209 | 35858 ft | 486 kts | 327° |
| 2026-05-06 12:19 | 3.19091 | 42.35507 | 35858 ft | 485 kts | 327° |
| 2026-05-06 12:19 | 3.24729 | 42.31814 | 35868 ft | 485 kts | 327° |
| 2026-05-06 12:20 | 3.30374 | 42.28114 | 35856 ft | 485 kts | 327° |
| 2026-05-06 12:20 | 3.36018 | 42.24418 | 35868 ft | 485 kts | 327° |
| 2026-05-06 12:21 | 3.41624 | 42.20749 | 35869 ft | 484 kts | 327° |
| 2026-05-06 12:21 | 3.47263 | 42.17053 | 35872 ft | 484 kts | 327° |
| 2026-05-06 12:22 | 3.52894 | 42.13359 | 35863 ft | 484 kts | 327° |
| 2026-05-06 12:22 | 3.58526 | 42.09668 | 35868 ft | 484 kts | 327° |
| 2026-05-06 12:23 | 3.64160 | 42.05975 | 35860 ft | 484 kts | 327° |
| 2026-05-06 12:23 | 3.69788 | 42.02284 | 35872 ft | 483 kts | 327° |
| 2026-05-06 12:24 | 3.75409 | 41.98598 | 35880 ft | 483 kts | 327° |
| 2026-05-06 12:24 | 3.81024 | 41.94918 | 35880 ft | 482 kts | 327° |
| 2026-05-06 12:25 | 3.86633 | 41.91237 | 35886 ft | 482 kts | 327° |
| 2026-05-06 12:25 | 3.92239 | 41.87557 | 35871 ft | 482 kts | 327° |
| 2026-05-06 12:26 | 3.97642 | 41.83579 | 35887 ft | 482 kts | 322° |
| 2026-05-06 12:26 | 4.01986 | 41.80061 | 35881 ft | 483 kts | 321° |
| 2026-05-06 12:27 | 4.07204 | 41.75821 | 35887 ft | 483 kts | 322° |
| 2026-05-06 12:27 | 4.12444 | 41.71590 | 35891 ft | 484 kts | 322° |
| 2026-05-06 12:28 | 4.17707 | 41.67361 | 35889 ft | 484 kts | 322° |
| 2026-05-06 12:28 | 4.22957 | 41.63146 | 35889 ft | 483 kts | 322° |
| 2026-05-06 12:29 | 4.28205 | 41.58925 | 35888 ft | 483 kts | 322° |
| 2026-05-06 12:29 | 4.33410 | 41.54741 | 35900 ft | 483 kts | 322° |
| 2026-05-06 12:30 | 4.38652 | 41.50523 | 35898 ft | 483 kts | 322° |
| 2026-05-06 12:30 | 4.43899 | 41.46309 | 35901 ft | 483 kts | 322° |
| 2026-05-06 12:31 | 4.49148 | 41.42085 | 35901 ft | 484 kts | 321° |
| 2026-05-06 12:31 | 4.54396 | 41.37859 | 35909 ft | 484 kts | 321° |
| 2026-05-06 12:32 | 4.59645 | 41.33638 | 35907 ft | 484 kts | 321° |
| 2026-05-06 12:32 | 4.64898 | 41.29413 | 35911 ft | 484 kts | 321° |
| 2026-05-06 12:33 | 4.70149 | 41.25184 | 35917 ft | 484 kts | 321° |
| 2026-05-06 12:33 | 4.75400 | 41.20954 | 35918 ft | 484 kts | 321° |
| 2026-05-06 12:34 | 4.80652 | 41.16726 | 35918 ft | 484 kts | 321° |
| 2026-05-06 12:34 | 4.85898 | 41.12500 | 35925 ft | 484 kts | 321° |
| 2026-05-06 12:35 | 4.91107 | 41.08302 | 35925 ft | 484 kts | 321° |
| 2026-05-06 12:35 | 4.96357 | 41.04072 | 35934 ft | 484 kts | 321° |
| 2026-05-06 12:36 | 5.01606 | 40.99839 | 35936 ft | 484 kts | 321° |
| 2026-05-06 12:36 | 5.06863 | 40.95603 | 35941 ft | 484 kts | 321° |
| 2026-05-06 12:37 | 5.12116 | 40.91367 | 35944 ft | 484 kts | 321° |
| 2026-05-06 12:37 | 5.17369 | 40.87128 | 35947 ft | 484 kts | 321° |
| 2026-05-06 12:38 | 5.22622 | 40.82903 | 35953 ft | 484 kts | 321° |
| 2026-05-06 12:38 | 5.27911 | 40.78732 | 35959 ft | 483 kts | 322° |
| 2026-05-06 12:39 | 5.33209 | 40.74570 | 35963 ft | 484 kts | 322° |
| 2026-05-06 12:39 | 5.38505 | 40.70399 | 35966 ft | 484 kts | 322° |
| 2026-05-06 12:40 | 5.43794 | 40.66225 | 35974 ft | 484 kts | 322° |
| 2026-05-06 12:40 | 5.49080 | 40.62046 | 35982 ft | 484 kts | 321° |
| 2026-05-06 12:41 | 5.54373 | 40.57868 | 35987 ft | 484 kts | 321° |
| 2026-05-06 12:41 | 5.59626 | 40.53719 | 35988 ft | 484 kts | 321° |
| 2026-05-06 12:42 | 5.64955 | 40.49507 | 35997 ft | 484 kts | 321° |
| 2026-05-06 12:42 | 5.70247 | 40.45325 | 36003 ft | 484 kts | 321° |
| 2026-05-06 12:43 | 5.75503 | 40.41168 | 36006 ft | 484 kts | 321° |
| 2026-05-06 12:43 | 5.80796 | 40.36980 | 36013 ft | 484 kts | 321° |
| 2026-05-06 12:44 | 5.86083 | 40.32798 | 36020 ft | 484 kts | 321° |
| 2026-05-06 12:44 | 5.91367 | 40.28618 | 36025 ft | 483 kts | 321° |
| 2026-05-06 12:45 | 5.96652 | 40.24437 | 36030 ft | 483 kts | 321° |
| 2026-05-06 12:46 | 6.04573 | 40.18165 | 36035 ft | 483 kts | 321° |
| 2026-05-06 12:46 | 6.09852 | 40.13984 | 36048 ft | 483 kts | 321° |
| 2026-05-06 12:47 | 6.15137 | 40.09796 | 36055 ft | 484 kts | 321° |
| 2026-05-06 12:47 | 6.20417 | 40.05611 | 36058 ft | 484 kts | 321° |
| 2026-05-06 12:48 | 6.25590 | 40.01294 | 36031 ft | 483 kts | 318° |
| 2026-05-06 12:48 | 6.30587 | 39.96777 | 36053 ft | 483 kts | 317° |
| 2026-05-06 12:49 | 6.35584 | 39.92259 | 36044 ft | 483 kts | 318° |
| 2026-05-06 12:49 | 6.40595 | 39.87763 | 36065 ft | 483 kts | 318° |
| 2026-05-06 12:50 | 6.45631 | 39.83285 | 36064 ft | 483 kts | 319° |
| 2026-05-06 12:50 | 6.50867 | 39.79021 | 36073 ft | 485 kts | 321° |
| 2026-05-06 12:51 | 6.56117 | 39.74858 | 36074 ft | 484 kts | 321° |
| 2026-05-06 12:51 | 6.61410 | 39.70609 | 36084 ft | 483 kts | 321° |
| 2026-05-06 12:52 | 6.66644 | 39.66368 | 36089 ft | 483 kts | 321° |
| 2026-05-06 12:52 | 6.71839 | 39.62147 | 36099 ft | 483 kts | 321° |
| 2026-05-06 12:53 | 6.77067 | 39.57900 | 36105 ft | 483 kts | 321° |
| 2026-05-06 12:53 | 6.82296 | 39.53654 | 36112 ft | 483 kts | 321° |
| 2026-05-06 12:54 | 6.87522 | 39.49408 | 36112 ft | 482 kts | 321° |
| 2026-05-06 12:54 | 6.92747 | 39.45162 | 36119 ft | 483 kts | 321° |
| 2026-05-06 12:55 | 6.97979 | 39.40912 | 36133 ft | 483 kts | 321° |
| 2026-05-06 12:55 | 7.03210 | 39.36659 | 36142 ft | 483 kts | 321° |
| 2026-05-06 12:56 | 7.08441 | 39.32404 | 36148 ft | 483 kts | 321° |
| 2026-05-06 12:56 | 7.13669 | 39.28151 | 36148 ft | 484 kts | 321° |
| 2026-05-06 12:57 | 7.18896 | 39.23896 | 36156 ft | 483 kts | 321° |
| 2026-05-06 12:57 | 7.24086 | 39.19671 | 36160 ft | 483 kts | 321° |
| 2026-05-06 12:58 | 7.29342 | 39.15389 | 36168 ft | 483 kts | 321° |
| 2026-05-06 12:58 | 7.34524 | 39.11170 | 36180 ft | 482 kts | 321° |
| 2026-05-06 12:59 | 7.39739 | 39.06920 | 36178 ft | 482 kts | 321° |
| 2026-05-06 12:59 | 7.45140 | 39.02923 | 36187 ft | 482 kts | 326° |
| 2026-05-06 13:00 | 7.50737 | 38.99194 | 36193 ft | 483 kts | 326° |
| 2026-05-06 13:00 | 7.56341 | 38.95458 | 36197 ft | 483 kts | 326° |
| 2026-05-06 13:01 | 7.61933 | 38.91701 | 36205 ft | 483 kts | 326° |
| 2026-05-06 13:01 | 7.67517 | 38.87929 | 36210 ft | 483 kts | 326° |
| 2026-05-06 13:02 | 7.73106 | 38.84154 | 36212 ft | 483 kts | 326° |
| 2026-05-06 13:02 | 7.78688 | 38.80384 | 36218 ft | 482 kts | 326° |
| 2026-05-06 13:03 | 7.84260 | 38.76621 | 36221 ft | 482 kts | 326° |
| 2026-05-06 13:03 | 7.89796 | 38.72881 | 36228 ft | 482 kts | 326° |
| 2026-05-06 13:04 | 7.95364 | 38.69116 | 36238 ft | 482 kts | 326° |
| 2026-05-06 13:04 | 8.00927 | 38.65357 | 36238 ft | 481 kts | 326° |
| 2026-05-06 13:05 | 8.06486 | 38.61593 | 36240 ft | 481 kts | 326° |
| 2026-05-06 13:05 | 8.12052 | 38.57827 | 36244 ft | 482 kts | 326° |
| 2026-05-06 13:06 | 8.18039 | 38.54975 | 36255 ft | 480 kts | 349° |
| 2026-05-06 13:06 | 8.21368 | 38.54709 | 36249 ft | 482 kts | 2° |
| 2026-05-06 13:06 | 8.24668 | 38.55236 | 36247 ft | 481 kts | 13° |
| 2026-05-06 13:07 | 8.31155 | 38.56954 | 36237 ft | 484 kts | 14° |
| 2026-05-06 13:07 | 8.37678 | 38.58691 | 36257 ft | 487 kts | 13° |
| 2026-05-06 13:08 | 8.44255 | 38.60370 | 36245 ft | 488 kts | 13° |
| 2026-05-06 13:08 | 8.50859 | 38.62022 | 36260 ft | 490 kts | 13° |
| 2026-05-06 13:09 | 8.57481 | 38.63675 | 36258 ft | 490 kts | 13° |
| 2026-05-06 13:09 | 8.64103 | 38.65333 | 36260 ft | 490 kts | 13° |
| 2026-05-06 13:10 | 8.70701 | 38.66987 | 36265 ft | 488 kts | 13° |
| 2026-05-06 13:10 | 8.77242 | 38.68628 | 36263 ft | 487 kts | 13° |
| 2026-05-06 13:11 | 8.83807 | 38.70272 | 36253 ft | 486 kts | 13° |
| 2026-05-06 13:11 | 8.90360 | 38.71918 | 36266 ft | 485 kts | 13° |
| 2026-05-06 13:12 | 8.96911 | 38.73562 | 36270 ft | 485 kts | 13° |
| 2026-05-06 13:12 | 9.03464 | 38.75206 | 36266 ft | 485 kts | 13° |
| 2026-05-06 13:13 | 9.10046 | 38.76752 | 36263 ft | 486 kts | 8° |
| 2026-05-06 13:13 | 9.16781 | 38.77275 | 36420 ft | 486 kts | 0° |
| 2026-05-06 13:13 | 9.20162 | 38.77342 | 36629 ft | 485 kts | 0° |
| 2026-05-06 13:14 | 9.23530 | 38.77403 | 36942 ft | 482 kts | 0° |
| 2026-05-06 13:14 | 9.26861 | 38.77469 | 37294 ft | 477 kts | 0° |
| 2026-05-06 13:14 | 9.30190 | 38.77542 | 37253 ft | 478 kts | 0° |
| 2026-05-06 13:15 | 9.36778 | 38.77712 | 37259 ft | 471 kts | 0° |
| 2026-05-06 13:15 | 9.43327 | 38.77892 | 37264 ft | 471 kts | 0° |
| 2026-05-06 13:16 | 9.49893 | 38.78072 | 37262 ft | 472 kts | 0° |
| 2026-05-06 13:16 | 9.56471 | 38.78253 | 37258 ft | 473 kts | 0° |
| 2026-05-06 13:17 | 9.63006 | 38.78434 | 37257 ft | 473 kts | 0° |
| 2026-05-06 13:17 | 9.69588 | 38.78613 | 37261 ft | 473 kts | 1° |
| 2026-05-06 13:18 | 9.76173 | 38.78793 | 37259 ft | 474 kts | 0° |
| 2026-05-06 13:18 | 9.82758 | 38.78974 | 37257 ft | 474 kts | 0° |
| 2026-05-06 13:19 | 9.88277 | 38.79128 | 37237 ft | 474 kts | 0° |
| 2026-05-06 13:19 | 9.94864 | 38.79310 | 37249 ft | 473 kts | 0° |
| 2026-05-06 13:20 | 10.01444 | 38.79490 | 37227 ft | 473 kts | 1° |
| 2026-05-06 13:20 | 10.07986 | 38.79670 | 37219 ft | 473 kts | 0° |
| 2026-05-06 13:21 | 10.14571 | 38.79848 | 37211 ft | 474 kts | 0° |
| 2026-05-06 13:21 | 10.21157 | 38.80029 | 37211 ft | 474 kts | 0° |
| 2026-05-06 13:22 | 10.27749 | 38.80211 | 37213 ft | 474 kts | 0° |
| 2026-05-06 13:22 | 10.34342 | 38.80391 | 37206 ft | 474 kts | 0° |
| 2026-05-06 13:23 | 10.40939 | 38.80575 | 37203 ft | 475 kts | 0° |
| 2026-05-06 13:23 | 10.47543 | 38.80757 | 37208 ft | 475 kts | 0° |
| 2026-05-06 13:24 | 10.54153 | 38.80937 | 37181 ft | 475 kts | 0° |
| 2026-05-06 13:24 | 10.60765 | 38.81122 | 37191 ft | 475 kts | 0° |
| 2026-05-06 13:25 | 10.67374 | 38.81304 | 37166 ft | 476 kts | 0° |
| 2026-05-06 13:25 | 10.73993 | 38.81487 | 37188 ft | 476 kts | 0° |
| 2026-05-06 13:26 | 10.80568 | 38.81669 | 37173 ft | 476 kts | 0° |
| 2026-05-06 13:26 | 10.87197 | 38.81849 | 37179 ft | 477 kts | 0° |
| 2026-05-06 13:27 | 10.93828 | 38.82026 | 37164 ft | 477 kts | 0° |
| 2026-05-06 13:27 | 11.00462 | 38.82212 | 37173 ft | 477 kts | 0° |
| 2026-05-06 13:28 | 11.07101 | 38.82393 | 37170 ft | 478 kts | 0° |
| 2026-05-06 13:28 | 11.13751 | 38.82575 | 37156 ft | 478 kts | 0° |
| 2026-05-06 13:29 | 11.20399 | 38.82760 | 37151 ft | 477 kts | 0° |
| 2026-05-06 13:29 | 11.27035 | 38.82940 | 37159 ft | 477 kts | 0° |
| 2026-05-06 13:30 | 11.33682 | 38.83120 | 37149 ft | 478 kts | 0° |
| 2026-05-06 13:30 | 11.40326 | 38.83305 | 37147 ft | 478 kts | 0° |
| 2026-05-06 13:31 | 11.46986 | 38.83488 | 37137 ft | 479 kts | 0° |
| 2026-05-06 13:31 | 11.53647 | 38.83673 | 37143 ft | 479 kts | 0° |
| 2026-05-06 13:32 | 11.60316 | 38.83856 | 37130 ft | 480 kts | 0° |
| 2026-05-06 13:32 | 11.66986 | 38.84041 | 37128 ft | 480 kts | 0° |
| 2026-05-06 13:33 | 11.73665 | 38.84227 | 37120 ft | 480 kts | 0° |
| 2026-05-06 13:33 | 11.80339 | 38.84412 | 37123 ft | 480 kts | 0° |
| 2026-05-06 13:34 | 11.87021 | 38.84598 | 37114 ft | 480 kts | 0° |
| 2026-05-06 13:34 | 11.93699 | 38.84781 | 37108 ft | 480 kts | 0° |
| 2026-05-06 13:35 | 12.00387 | 38.84967 | 37111 ft | 481 kts | 0° |
| 2026-05-06 13:35 | 12.07078 | 38.85156 | 37103 ft | 481 kts | 360° |
| 2026-05-06 13:36 | 12.13780 | 38.85339 | 37100 ft | 482 kts | 360° |
| 2026-05-06 13:36 | 12.20486 | 38.85527 | 37089 ft | 482 kts | 360° |
| 2026-05-06 13:37 | 12.27141 | 38.85712 | 37070 ft | 482 kts | 360° |
| 2026-05-06 13:37 | 12.33845 | 38.85897 | 37081 ft | 482 kts | 360° |
| 2026-05-06 13:38 | 12.40553 | 38.86078 | 37076 ft | 482 kts | 0° |
| 2026-05-06 13:38 | 12.47260 | 38.86259 | 37061 ft | 482 kts | 0° |
| 2026-05-06 13:39 | 12.53955 | 38.86443 | 37049 ft | 482 kts | 0° |
| 2026-05-06 13:39 | 12.60650 | 38.86624 | 37062 ft | 481 kts | 360° |
| 2026-05-06 13:40 | 12.67346 | 38.86806 | 37045 ft | 481 kts | 360° |
| 2026-05-06 13:40 | 12.74046 | 38.86987 | 37055 ft | 482 kts | 360° |
| 2026-05-06 13:41 | 12.80757 | 38.87171 | 37007 ft | 483 kts | 360° |
| 2026-05-06 13:41 | 12.87473 | 38.87354 | 36997 ft | 482 kts | 360° |
| 2026-05-06 13:42 | 12.94180 | 38.87535 | 36988 ft | 482 kts | 359° |
| 2026-05-06 13:42 | 13.00888 | 38.87664 | 36989 ft | 482 kts | 359° |
| 2026-05-06 13:43 | 13.07550 | 38.87773 | 36986 ft | 482 kts | 359° |
| 2026-05-06 13:43 | 13.14259 | 38.87885 | 36974 ft | 482 kts | 359° |
| 2026-05-06 13:44 | 13.20969 | 38.88004 | 36970 ft | 482 kts | 359° |
| 2026-05-06 13:44 | 13.27671 | 38.88124 | 36967 ft | 482 kts | 359° |
| 2026-05-06 13:45 | 13.34378 | 38.88242 | 36963 ft | 482 kts | 359° |
| 2026-05-06 13:45 | 13.44444 | 38.88425 | 36952 ft | 483 kts | 359° |
| 2026-05-06 13:46 | 13.51160 | 38.88549 | 36944 ft | 483 kts | 359° |
| 2026-05-06 13:46 | 13.57877 | 38.88669 | 36950 ft | 483 kts | 359° |
| 2026-05-06 13:47 | 13.64603 | 38.88789 | 36938 ft | 483 kts | 359° |
| 2026-05-06 13:47 | 13.71331 | 38.88911 | 36936 ft | 484 kts | 359° |
| 2026-05-06 13:48 | 13.78061 | 38.89031 | 36929 ft | 484 kts | 359° |
| 2026-05-06 13:48 | 13.84789 | 38.89152 | 36926 ft | 484 kts | 359° |
| 2026-05-06 13:49 | 13.91524 | 38.89274 | 36930 ft | 484 kts | 359° |
| 2026-05-06 13:49 | 13.98259 | 38.89396 | 36919 ft | 484 kts | 359° |
| 2026-05-06 13:50 | 14.04989 | 38.89516 | 36900 ft | 483 kts | 359° |
| 2026-05-06 13:50 | 14.11665 | 38.89597 | 36914 ft | 483 kts | 358° |
| 2026-05-06 13:51 | 14.18435 | 38.89661 | 36909 ft | 484 kts | 358° |
| 2026-05-06 13:51 | 14.25121 | 38.89728 | 36907 ft | 484 kts | 358° |
| 2026-05-06 13:52 | 14.31861 | 38.89802 | 36904 ft | 484 kts | 358° |
| 2026-05-06 13:52 | 14.38603 | 38.89876 | 36898 ft | 485 kts | 359° |
| 2026-05-06 13:53 | 14.45350 | 38.89950 | 36892 ft | 485 kts | 358° |
| 2026-05-06 13:53 | 14.52101 | 38.90017 | 36890 ft | 485 kts | 358° |
| 2026-05-06 13:54 | 14.58844 | 38.90028 | 36887 ft | 484 kts | 358° |
| 2026-05-06 13:54 | 14.65582 | 38.90026 | 36889 ft | 484 kts | 358° |
| 2026-05-06 13:55 | 14.72319 | 38.90030 | 36876 ft | 484 kts | 358° |
| 2026-05-06 13:55 | 14.79055 | 38.90035 | 36882 ft | 484 kts | 358° |
| 2026-05-06 13:56 | 14.85798 | 38.90042 | 36879 ft | 484 kts | 358° |
| 2026-05-06 13:56 | 14.92501 | 38.90054 | 36872 ft | 485 kts | 358° |
| 2026-05-06 13:57 | 14.99252 | 38.90064 | 36872 ft | 485 kts | 358° |
| 2026-05-06 13:57 | 15.06004 | 38.90073 | 36890 ft | 485 kts | 358° |
| 2026-05-06 13:58 | 15.12753 | 38.90081 | 36866 ft | 485 kts | 358° |
| 2026-05-06 13:58 | 15.19502 | 38.90086 | 36861 ft | 485 kts | 358° |
| 2026-05-06 13:59 | 15.26248 | 38.90098 | 36865 ft | 485 kts | 358° |
| 2026-05-06 13:59 | 15.33008 | 38.90184 | 36859 ft | 486 kts | 359° |
| 2026-05-06 14:00 | 15.39773 | 38.90451 | 36861 ft | 487 kts | 0° |
| 2026-05-06 14:00 | 15.46549 | 38.90731 | 36852 ft | 487 kts | 360° |
| 2026-05-06 14:01 | 15.53330 | 38.90986 | 36851 ft | 487 kts | 360° |
| 2026-05-06 14:01 | 15.60106 | 38.91232 | 36851 ft | 487 kts | 360° |
| 2026-05-06 14:02 | 15.66883 | 38.91473 | 36849 ft | 487 kts | 360° |
| 2026-05-06 14:02 | 15.73601 | 38.91711 | 36843 ft | 486 kts | 360° |
| 2026-05-06 14:03 | 15.80368 | 38.91953 | 36846 ft | 487 kts | 360° |
| 2026-05-06 14:03 | 15.87139 | 38.92193 | 36844 ft | 487 kts | 360° |
| 2026-05-06 14:04 | 15.93919 | 38.92435 | 36842 ft | 487 kts | 360° |
| 2026-05-06 14:04 | 16.00693 | 38.92677 | 36841 ft | 487 kts | 360° |
| 2026-05-06 14:05 | 16.07468 | 38.92922 | 36838 ft | 488 kts | 359° |
| 2026-05-06 14:05 | 16.14253 | 38.93165 | 36834 ft | 488 kts | 359° |
| 2026-05-06 14:06 | 16.21046 | 38.93408 | 36835 ft | 488 kts | 359° |
| 2026-05-06 14:06 | 16.27843 | 38.93652 | 36836 ft | 489 kts | 359° |
| 2026-05-06 14:07 | 16.34643 | 38.93897 | 36835 ft | 489 kts | 359° |
| 2026-05-06 14:07 | 16.41446 | 38.94140 | 36834 ft | 489 kts | 359° |
| 2026-05-06 14:08 | 16.47103 | 38.94344 | 36832 ft | 490 kts | 359° |
| 2026-05-06 14:08 | 16.53917 | 38.94589 | 36823 ft | 490 kts | 359° |
| 2026-05-06 14:09 | 16.60731 | 38.94834 | 36828 ft | 489 kts | 359° |
| 2026-05-06 14:09 | 16.67541 | 38.95079 | 36830 ft | 489 kts | 359° |
| 2026-05-06 14:10 | 16.74345 | 38.95325 | 36830 ft | 490 kts | 359° |
| 2026-05-06 14:10 | 16.81161 | 38.95571 | 36816 ft | 490 kts | 359° |
| 2026-05-06 14:11 | 16.87967 | 38.95814 | 36830 ft | 489 kts | 359° |
| 2026-05-06 14:11 | 16.94777 | 38.96062 | 36825 ft | 490 kts | 359° |
| 2026-05-06 14:12 | 17.01586 | 38.96310 | 36886 ft | 489 kts | 359° |
| 2026-05-06 14:12 | 17.08330 | 38.96554 | 36980 ft | 488 kts | 359° |
| 2026-05-06 14:13 | 17.15165 | 38.96801 | 36990 ft | 489 kts | 359° |
| 2026-05-06 14:13 | 17.21982 | 38.97046 | 36996 ft | 491 kts | 359° |
| 2026-05-06 14:14 | 17.28822 | 38.97296 | 36991 ft | 492 kts | 359° |
| 2026-05-06 14:14 | 17.35629 | 38.97542 | 36992 ft | 493 kts | 359° |
| 2026-05-06 14:15 | 17.42539 | 38.97794 | 36990 ft | 493 kts | 359° |
| 2026-05-06 14:15 | 17.49351 | 38.98040 | 36992 ft | 493 kts | 359° |
| 2026-05-06 14:16 | 17.56213 | 38.98289 | 36990 ft | 493 kts | 359° |
| 2026-05-06 14:16 | 17.63067 | 38.98539 | 36989 ft | 493 kts | 359° |
| 2026-05-06 14:17 | 17.69920 | 38.98788 | 36990 ft | 493 kts | 359° |
| 2026-05-06 14:17 | 17.76774 | 38.99036 | 36989 ft | 493 kts | 359° |
| 2026-05-06 14:18 | 17.83632 | 38.99287 | 36939 ft | 493 kts | 359° |
| 2026-05-06 14:18 | 17.90483 | 38.99539 | 36935 ft | 492 kts | 359° |
| 2026-05-06 14:19 | 17.97331 | 38.99788 | 36935 ft | 492 kts | 359° |
| 2026-05-06 14:19 | 18.04173 | 39.00037 | 36940 ft | 492 kts | 358° |
| 2026-05-06 14:20 | 18.11033 | 39.00289 | 36947 ft | 494 kts | 358° |
| 2026-05-06 14:20 | 18.17908 | 39.00543 | 36947 ft | 495 kts | 359° |
| 2026-05-06 14:21 | 18.24801 | 39.00900 | 36946 ft | 497 kts | 359° |
| 2026-05-06 14:21 | 18.31706 | 39.01306 | 36967 ft | 497 kts | 359° |
| 2026-05-06 14:22 | 18.38593 | 39.01701 | 37062 ft | 495 kts | 359° |
| 2026-05-06 14:22 | 18.45481 | 39.02082 | 37113 ft | 496 kts | 359° |
| 2026-05-06 14:23 | 18.52382 | 39.02459 | 37115 ft | 497 kts | 359° |
| 2026-05-06 14:23 | 18.59301 | 39.02840 | 37117 ft | 498 kts | 359° |
| 2026-05-06 14:24 | 18.66187 | 39.03224 | 37053 ft | 500 kts | 359° |
| 2026-05-06 14:24 | 18.73147 | 39.03610 | 36985 ft | 501 kts | 359° |
| 2026-05-06 14:25 | 18.80098 | 39.03997 | 36983 ft | 500 kts | 359° |
| 2026-05-06 14:25 | 18.87042 | 39.04381 | 36968 ft | 499 kts | 359° |
| 2026-05-06 14:26 | 18.93976 | 39.04764 | 36969 ft | 498 kts | 359° |
| 2026-05-06 14:26 | 19.00897 | 39.05149 | 36961 ft | 498 kts | 359° |
| 2026-05-06 14:27 | 19.07823 | 39.05528 | 36961 ft | 498 kts | 358° |
| 2026-05-06 14:27 | 19.14689 | 39.05085 | 36959 ft | 492 kts | 347° |
| 2026-05-06 14:28 | 19.21313 | 39.03434 | 36953 ft | 488 kts | 340° |
| 2026-05-06 14:28 | 19.27863 | 39.01507 | 36944 ft | 489 kts | 340° |
| 2026-05-06 14:29 | 19.34435 | 38.99592 | 36939 ft | 490 kts | 340° |
| 2026-05-06 14:29 | 19.40991 | 38.97711 | 36933 ft | 491 kts | 340° |
| 2026-05-06 14:30 | 19.47598 | 38.95826 | 36921 ft | 492 kts | 340° |
| 2026-05-06 14:30 | 19.54221 | 38.93937 | 36910 ft | 493 kts | 340° |
| 2026-05-06 14:31 | 19.60838 | 38.92048 | 36910 ft | 492 kts | 340° |
| 2026-05-06 14:31 | 19.67453 | 38.90155 | 36917 ft | 492 kts | 340° |
| 2026-05-06 14:32 | 19.74068 | 38.88259 | 36913 ft | 492 kts | 340° |
| 2026-05-06 14:32 | 19.80674 | 38.86365 | 36896 ft | 492 kts | 340° |
| 2026-05-06 14:33 | 19.87283 | 38.84470 | 36899 ft | 492 kts | 340° |
| 2026-05-06 14:33 | 19.93894 | 38.82572 | 36889 ft | 492 kts | 340° |
| 2026-05-06 14:34 | 20.00461 | 38.80683 | 36886 ft | 492 kts | 340° |
| 2026-05-06 14:34 | 20.07122 | 38.78768 | 36859 ft | 494 kts | 339° |
| 2026-05-06 14:35 | 20.13716 | 38.76866 | 36856 ft | 495 kts | 339° |
| 2026-05-06 14:35 | 20.20366 | 38.74950 | 36846 ft | 495 kts | 339° |
| 2026-05-06 14:36 | 20.27015 | 38.73031 | 36839 ft | 495 kts | 339° |
| 2026-05-06 14:36 | 20.33669 | 38.71110 | 36832 ft | 495 kts | 339° |
| 2026-05-06 14:37 | 20.40316 | 38.69192 | 36865 ft | 495 kts | 339° |
| 2026-05-06 14:37 | 20.46955 | 38.67270 | 36870 ft | 495 kts | 339° |
| 2026-05-06 14:38 | 20.53612 | 38.65343 | 36868 ft | 496 kts | 339° |
| 2026-05-06 14:38 | 20.60264 | 38.63416 | 36864 ft | 495 kts | 339° |
| 2026-05-06 14:39 | 20.66917 | 38.61488 | 36859 ft | 495 kts | 339° |
| 2026-05-06 14:39 | 20.73560 | 38.59558 | 36858 ft | 495 kts | 339° |
| 2026-05-06 14:40 | 20.80202 | 38.57630 | 36851 ft | 493 kts | 339° |
| 2026-05-06 14:40 | 20.83617 | 38.57074 | 36836 ft | 504 kts | 354° |
| 2026-05-06 14:40 | 20.87141 | 38.57477 | 36855 ft | 515 kts | 9° |
| 2026-05-06 14:41 | 20.90524 | 38.58799 | 36851 ft | 524 kts | 27° |
| 2026-05-06 14:41 | 20.93635 | 38.60827 | 36866 ft | 524 kts | 30° |
| 2026-05-06 14:41 | 20.99792 | 38.65057 | 36852 ft | 528 kts | 30° |
| 2026-05-06 14:42 | 21.06014 | 38.69255 | 36848 ft | 530 kts | 29° |
| 2026-05-06 14:42 | 21.12261 | 38.73375 | 36845 ft | 532 kts | 28° |
| 2026-05-06 14:43 | 21.18578 | 38.77517 | 36841 ft | 533 kts | 28° |
| 2026-05-06 14:43 | 21.24898 | 38.81673 | 36844 ft | 533 kts | 28° |
| 2026-05-06 14:44 | 21.31210 | 38.85833 | 36839 ft | 532 kts | 28° |
| 2026-05-06 14:45 | 21.40666 | 38.92075 | 36827 ft | 531 kts | 28° |
| 2026-05-06 14:45 | 21.46954 | 38.96233 | 36833 ft | 530 kts | 28° |
| 2026-05-06 14:46 | 21.53236 | 39.00389 | 36837 ft | 530 kts | 28° |
| 2026-05-06 14:46 | 21.59512 | 39.04546 | 36832 ft | 530 kts | 28° |
| 2026-05-06 14:47 | 21.65791 | 39.08685 | 36818 ft | 526 kts | 25° |
| 2026-05-06 14:47 | 21.69147 | 39.10134 | 36834 ft | 516 kts | 7° |
| 2026-05-06 14:47 | 21.72667 | 39.10557 | 36846 ft | 505 kts | 353° |
| 2026-05-06 14:47 | 21.76125 | 39.10160 | 36859 ft | 496 kts | 339° |
| 2026-05-06 14:48 | 21.79334 | 39.08963 | 36890 ft | 484 kts | 329° |
| 2026-05-06 14:48 | 21.85563 | 39.06089 | 37157 ft | 488 kts | 330° |
| 2026-05-06 14:48 | 21.88654 | 39.04698 | 37397 ft | 487 kts | 330° |
| 2026-05-06 14:49 | 21.91789 | 39.03308 | 37616 ft | 487 kts | 330° |
| 2026-05-06 14:49 | 21.94925 | 39.01932 | 37744 ft | 489 kts | 330° |
| 2026-05-06 14:49 | 21.98084 | 39.00551 | 37787 ft | 490 kts | 330° |
| 2026-05-06 14:50 | 22.04402 | 38.97789 | 37831 ft | 489 kts | 330° |
| 2026-05-06 14:50 | 22.10655 | 38.95055 | 37825 ft | 482 kts | 329° |
| 2026-05-06 14:51 | 22.16856 | 38.92335 | 37829 ft | 480 kts | 329° |
| 2026-05-06 14:51 | 22.23037 | 38.89615 | 37836 ft | 480 kts | 329° |
| 2026-05-06 14:52 | 22.29232 | 38.86886 | 37836 ft | 481 kts | 329° |
| 2026-05-06 14:52 | 22.35450 | 38.84146 | 37834 ft | 484 kts | 329° |
| 2026-05-06 14:53 | 22.41697 | 38.81394 | 37827 ft | 486 kts | 329° |
| 2026-05-06 14:53 | 22.47914 | 38.78652 | 37826 ft | 486 kts | 329° |
| 2026-05-06 14:54 | 22.54185 | 38.75885 | 37824 ft | 487 kts | 329° |
| 2026-05-06 14:54 | 22.60459 | 38.73112 | 37823 ft | 486 kts | 329° |
| 2026-05-06 14:55 | 22.66717 | 38.70343 | 37824 ft | 486 kts | 329° |
| 2026-05-06 14:55 | 22.72972 | 38.67572 | 37824 ft | 485 kts | 329° |
| 2026-05-06 14:56 | 22.79215 | 38.64799 | 37819 ft | 484 kts | 329° |
| 2026-05-06 14:56 | 22.85449 | 38.62027 | 37812 ft | 484 kts | 329° |
| 2026-05-06 14:57 | 22.91672 | 38.59259 | 37814 ft | 483 kts | 329° |
| 2026-05-06 14:57 | 22.97894 | 38.56489 | 37812 ft | 483 kts | 328° |
| 2026-05-06 14:58 | 23.03063 | 38.54183 | 37816 ft | 483 kts | 328° |
| 2026-05-06 14:58 | 23.09280 | 38.51408 | 37807 ft | 483 kts | 328° |
| 2026-05-06 14:59 | 23.16505 | 38.48182 | 37804 ft | 483 kts | 328° |
| 2026-05-06 14:59 | 23.21717 | 38.45854 | 37801 ft | 483 kts | 328° |
| 2026-05-06 15:00 | 23.27935 | 38.43068 | 37795 ft | 483 kts | 328° |
| 2026-05-06 15:00 | 23.34154 | 38.40282 | 37798 ft | 483 kts | 328° |
| 2026-05-06 15:01 | 23.40377 | 38.37491 | 37787 ft | 484 kts | 328° |
| 2026-05-06 15:01 | 23.46602 | 38.34699 | 37788 ft | 484 kts | 328° |
| 2026-05-06 15:02 | 23.52818 | 38.31905 | 37780 ft | 483 kts | 328° |
| 2026-05-06 15:02 | 23.59023 | 38.29114 | 37775 ft | 482 kts | 328° |
| 2026-05-06 15:03 | 23.65220 | 38.26323 | 37769 ft | 481 kts | 327° |
| 2026-05-06 15:03 | 23.71370 | 38.23562 | 37765 ft | 481 kts | 327° |
| 2026-05-06 15:04 | 23.77563 | 38.20780 | 37762 ft | 482 kts | 327° |
| 2026-05-06 15:04 | 23.83769 | 38.17993 | 37758 ft | 482 kts | 327° |
| 2026-05-06 15:05 | 23.89974 | 38.15200 | 37763 ft | 482 kts | 327° |
| 2026-05-06 15:05 | 23.96177 | 38.12404 | 37775 ft | 482 kts | 327° |
| 2026-05-06 15:06 | 24.02372 | 38.09610 | 37778 ft | 481 kts | 327° |
| 2026-05-06 15:06 | 24.08569 | 38.06808 | 37778 ft | 482 kts | 327° |
| 2026-05-06 15:07 | 24.14700 | 38.03902 | 37782 ft | 475 kts | 322° |
| 2026-05-06 15:07 | 24.20207 | 38.00132 | 37774 ft | 463 kts | 315° |
| 2026-05-06 15:08 | 24.25495 | 37.96097 | 37780 ft | 463 kts | 315° |
| 2026-05-06 15:08 | 24.30797 | 37.92061 | 37778 ft | 464 kts | 315° |
| 2026-05-06 15:09 | 24.36122 | 37.88046 | 37775 ft | 465 kts | 315° |
| 2026-05-06 15:09 | 24.41455 | 37.84035 | 37790 ft | 465 kts | 315° |
| 2026-05-06 15:10 | 24.46788 | 37.80018 | 37783 ft | 465 kts | 315° |
| 2026-05-06 15:10 | 24.52120 | 37.76001 | 37785 ft | 464 kts | 315° |
| 2026-05-06 15:11 | 24.57440 | 37.71985 | 37796 ft | 464 kts | 315° |
| 2026-05-06 15:11 | 24.62755 | 37.67969 | 37799 ft | 464 kts | 315° |
| 2026-05-06 15:12 | 24.68035 | 37.63975 | 37805 ft | 464 kts | 315° |
| 2026-05-06 15:12 | 24.73344 | 37.59955 | 37811 ft | 463 kts | 315° |
| 2026-05-06 15:13 | 24.78648 | 37.55934 | 37809 ft | 462 kts | 315° |
| 2026-05-06 15:13 | 24.83936 | 37.51925 | 37825 ft | 461 kts | 315° |
| 2026-05-06 15:14 | 24.89213 | 37.47914 | 37824 ft | 461 kts | 315° |
| 2026-05-06 15:14 | 24.94488 | 37.43901 | 37833 ft | 460 kts | 315° |
| 2026-05-06 15:15 | 24.99752 | 37.39894 | 37839 ft | 460 kts | 315° |
| 2026-05-06 15:15 | 25.05016 | 37.35883 | 37843 ft | 460 kts | 315° |
| 2026-05-06 15:16 | 25.10277 | 37.31866 | 37844 ft | 460 kts | 315° |
| 2026-05-06 15:16 | 25.15540 | 37.27845 | 37852 ft | 460 kts | 315° |
| 2026-05-06 15:17 | 25.20807 | 37.23820 | 37852 ft | 461 kts | 315° |
| 2026-05-06 15:17 | 25.26075 | 37.19788 | 37853 ft | 461 kts | 315° |
| 2026-05-06 15:18 | 25.31337 | 37.15753 | 37851 ft | 460 kts | 315° |
| 2026-05-06 15:18 | 25.36592 | 37.11716 | 37854 ft | 460 kts | 315° |
| 2026-05-06 15:19 | 25.41845 | 37.07678 | 37864 ft | 460 kts | 315° |
| 2026-05-06 15:19 | 25.47113 | 37.03643 | 37867 ft | 460 kts | 315° |
| 2026-05-06 15:20 | 25.52345 | 36.99635 | 37862 ft | 460 kts | 315° |
| 2026-05-06 15:20 | 25.57601 | 36.95600 | 37864 ft | 459 kts | 315° |
| 2026-05-06 15:21 | 25.62849 | 36.91562 | 37859 ft | 459 kts | 315° |
| 2026-05-06 15:21 | 25.68095 | 36.87525 | 37863 ft | 459 kts | 315° |
| 2026-05-06 15:22 | 25.73337 | 36.83483 | 37863 ft | 459 kts | 315° |
| 2026-05-06 15:22 | 25.78569 | 36.79431 | 37863 ft | 459 kts | 315° |
| 2026-05-06 15:23 | 25.83799 | 36.75373 | 37878 ft | 459 kts | 315° |
| 2026-05-06 15:23 | 25.89030 | 36.71309 | 37880 ft | 459 kts | 315° |
| 2026-05-06 15:24 | 25.94263 | 36.67238 | 37878 ft | 459 kts | 315° |
| 2026-05-06 15:24 | 25.99498 | 36.63162 | 37886 ft | 459 kts | 315° |
| 2026-05-06 15:25 | 26.04732 | 36.59083 | 37881 ft | 460 kts | 315° |
| 2026-05-06 15:25 | 26.09977 | 36.54993 | 37886 ft | 461 kts | 315° |
| 2026-05-06 15:26 | 26.15225 | 36.50894 | 37890 ft | 461 kts | 315° |
| 2026-05-06 15:26 | 26.20094 | 36.46409 | 37890 ft | 447 kts | 305° |
| 2026-05-06 15:27 | 26.24396 | 36.41432 | 37889 ft | 445 kts | 304° |
| 2026-05-06 15:27 | 26.28668 | 36.36446 | 37890 ft | 445 kts | 305° |
| 2026-05-06 15:28 | 26.32959 | 36.31473 | 37893 ft | 445 kts | 305° |
| 2026-05-06 15:28 | 26.37231 | 36.26540 | 37886 ft | 445 kts | 305° |
| 2026-05-06 15:29 | 26.41538 | 36.21568 | 37887 ft | 445 kts | 305° |
| 2026-05-06 15:29 | 26.45845 | 36.16592 | 37889 ft | 445 kts | 305° |
| 2026-05-06 15:30 | 26.50139 | 36.11619 | 37891 ft | 445 kts | 305° |
| 2026-05-06 15:30 | 26.54434 | 36.06639 | 37895 ft | 445 kts | 305° |
| 2026-05-06 15:31 | 26.58728 | 36.01657 | 37900 ft | 445 kts | 305° |
| 2026-05-06 15:31 | 26.63021 | 35.96670 | 37899 ft | 445 kts | 305° |
| 2026-05-06 15:32 | 26.69452 | 35.89187 | 37903 ft | 445 kts | 305° |
| 2026-05-06 15:32 | 26.73732 | 35.84199 | 37909 ft | 444 kts | 306° |
| 2026-05-06 15:33 | 26.78003 | 35.79218 | 37907 ft | 443 kts | 306° |
| 2026-05-06 15:33 | 26.82276 | 35.74229 | 37914 ft | 444 kts | 306° |
| 2026-05-06 15:34 | 26.86545 | 35.69240 | 37918 ft | 444 kts | 306° |
| 2026-05-06 15:34 | 26.90786 | 35.64276 | 37918 ft | 444 kts | 306° |
| 2026-05-06 15:35 | 26.95052 | 35.59276 | 37917 ft | 444 kts | 306° |
| 2026-05-06 15:35 | 26.99318 | 35.54271 | 37920 ft | 444 kts | 306° |
| 2026-05-06 15:36 | 27.03581 | 35.49266 | 37915 ft | 444 kts | 306° |
| 2026-05-06 15:36 | 27.07844 | 35.44252 | 37916 ft | 443 kts | 306° |
| 2026-05-06 15:37 | 27.12100 | 35.39239 | 37928 ft | 443 kts | 306° |
| 2026-05-06 15:37 | 27.16351 | 35.34227 | 37923 ft | 443 kts | 306° |
| 2026-05-06 15:38 | 27.20601 | 35.29216 | 37927 ft | 443 kts | 306° |
| 2026-05-06 15:38 | 27.24846 | 35.24200 | 37923 ft | 443 kts | 306° |
| 2026-05-06 15:39 | 27.29090 | 35.19176 | 37925 ft | 443 kts | 306° |
| 2026-05-06 15:39 | 27.33300 | 35.14190 | 37933 ft | 442 kts | 306° |
| 2026-05-06 15:40 | 27.37527 | 35.09178 | 37932 ft | 441 kts | 306° |
| 2026-05-06 15:40 | 27.41748 | 35.04167 | 37936 ft | 441 kts | 306° |
| 2026-05-06 15:41 | 27.45968 | 34.99149 | 37933 ft | 441 kts | 306° |
| 2026-05-06 15:41 | 27.50182 | 34.94136 | 37935 ft | 441 kts | 306° |
| 2026-05-06 15:42 | 27.54561 | 34.89277 | 37933 ft | 443 kts | 309° |
| 2026-05-06 15:42 | 27.59074 | 34.84550 | 37938 ft | 443 kts | 310° |
| 2026-05-06 15:43 | 27.63580 | 34.79821 | 37935 ft | 442 kts | 310° |
| 2026-05-06 15:43 | 27.68039 | 34.75107 | 37938 ft | 442 kts | 310° |
| 2026-05-06 15:44 | 27.72511 | 34.70364 | 37941 ft | 441 kts | 310° |
| 2026-05-06 15:44 | 27.76976 | 34.65624 | 37943 ft | 440 kts | 310° |
| 2026-05-06 15:45 | 27.81433 | 34.60883 | 37945 ft | 440 kts | 310° |
| 2026-05-06 15:45 | 27.85876 | 34.56153 | 37942 ft | 439 kts | 310° |
| 2026-05-06 15:46 | 27.90315 | 34.51421 | 37939 ft | 438 kts | 310° |
| 2026-05-06 15:46 | 27.94754 | 34.46687 | 37943 ft | 438 kts | 310° |
| 2026-05-06 15:47 | 27.99172 | 34.41952 | 37959 ft | 436 kts | 308° |
| 2026-05-06 15:47 | 28.03123 | 34.36816 | 37946 ft | 431 kts | 303° |
| 2026-05-06 15:48 | 28.06258 | 34.32437 | 37947 ft | 431 kts | 303° |
| 2026-05-06 15:48 | 28.10041 | 34.27162 | 37943 ft | 432 kts | 303° |
| 2026-05-06 15:49 | 28.13840 | 34.21887 | 37950 ft | 432 kts | 303° |
| 2026-05-06 15:49 | 28.17645 | 34.16607 | 37952 ft | 433 kts | 303° |
| 2026-05-06 15:50 | 28.21447 | 34.11325 | 37950 ft | 433 kts | 303° |
| 2026-05-06 15:50 | 28.25253 | 34.06038 | 37949 ft | 433 kts | 303° |
| 2026-05-06 15:51 | 28.29055 | 34.00745 | 37936 ft | 432 kts | 303° |
| 2026-05-06 15:51 | 28.32846 | 33.95460 | 37942 ft | 431 kts | 303° |
| 2026-05-06 15:52 | 28.36633 | 33.90169 | 37944 ft | 432 kts | 303° |
| 2026-05-06 15:52 | 28.40425 | 33.84869 | 37948 ft | 432 kts | 303° |
| 2026-05-06 15:53 | 28.44195 | 33.79597 | 37953 ft | 432 kts | 303° |
| 2026-05-06 15:53 | 28.47982 | 33.74287 | 37938 ft | 432 kts | 303° |
| 2026-05-06 15:54 | 28.51761 | 33.68985 | 37944 ft | 431 kts | 303° |
| 2026-05-06 15:54 | 28.55530 | 33.63690 | 37948 ft | 431 kts | 303° |
| 2026-05-06 15:55 | 28.59294 | 33.58387 | 37950 ft | 431 kts | 303° |
| 2026-05-06 15:55 | 28.63063 | 33.53074 | 37945 ft | 432 kts | 303° |
| 2026-05-06 15:56 | 28.66839 | 33.47752 | 37953 ft | 432 kts | 303° |
| 2026-05-06 15:56 | 28.70616 | 33.42427 | 37952 ft | 432 kts | 303° |
| 2026-05-06 15:57 | 28.74393 | 33.37098 | 37968 ft | 432 kts | 303° |
| 2026-05-06 15:57 | 28.78159 | 33.31779 | 37961 ft | 431 kts | 303° |
| 2026-05-06 15:58 | 28.81912 | 33.26460 | 37986 ft | 431 kts | 303° |
| 2026-05-06 15:58 | 28.85664 | 33.21136 | 37990 ft | 431 kts | 303° |
| 2026-05-06 15:59 | 28.89419 | 33.15809 | 37987 ft | 431 kts | 303° |
| 2026-05-06 15:59 | 28.93173 | 33.10474 | 37996 ft | 431 kts | 303° |
| 2026-05-06 16:00 | 28.96897 | 33.05172 | 38001 ft | 431 kts | 303° |
| 2026-05-06 16:00 | 29.00646 | 32.99829 | 38007 ft | 431 kts | 303° |
| 2026-05-06 16:01 | 29.04392 | 32.94485 | 38010 ft | 431 kts | 303° |
| 2026-05-06 16:01 | 29.08138 | 32.89132 | 38011 ft | 431 kts | 303° |
| 2026-05-06 16:02 | 29.11883 | 32.83774 | 38019 ft | 431 kts | 303° |
| 2026-05-06 16:02 | 29.15622 | 32.78420 | 38019 ft | 431 kts | 303° |
| 2026-05-06 16:03 | 29.19358 | 32.73058 | 38032 ft | 431 kts | 303° |
| 2026-05-06 16:03 | 29.23096 | 32.67689 | 38022 ft | 431 kts | 303° |
| 2026-05-06 16:04 | 29.26833 | 32.62315 | 38030 ft | 431 kts | 303° |
| 2026-05-06 16:04 | 29.30557 | 32.56935 | 38021 ft | 431 kts | 303° |
| 2026-05-06 16:05 | 29.34261 | 32.51535 | 38024 ft | 431 kts | 303° |
| 2026-05-06 16:05 | 29.37935 | 32.46169 | 38031 ft | 431 kts | 303° |
| 2026-05-06 16:06 | 29.41633 | 32.40762 | 38032 ft | 431 kts | 303° |
| 2026-05-06 16:06 | 29.45335 | 32.35348 | 38035 ft | 431 kts | 303° |
| 2026-05-06 16:07 | 29.49034 | 32.29930 | 38035 ft | 431 kts | 303° |
| 2026-05-06 16:07 | 29.52730 | 32.24508 | 38038 ft | 432 kts | 303° |
| 2026-05-06 16:08 | 29.56429 | 32.19078 | 38043 ft | 431 kts | 303° |
| 2026-05-06 16:08 | 29.60121 | 32.13646 | 38045 ft | 431 kts | 303° |
| 2026-05-06 16:09 | 29.63814 | 32.08209 | 38044 ft | 431 kts | 303° |
| 2026-05-06 16:09 | 29.67500 | 32.02772 | 38049 ft | 431 kts | 303° |
| 2026-05-06 16:10 | 29.71188 | 31.97327 | 38047 ft | 431 kts | 303° |
| 2026-05-06 16:10 | 29.74875 | 31.91874 | 38047 ft | 432 kts | 303° |
| 2026-05-06 16:11 | 29.78559 | 31.86415 | 38047 ft | 432 kts | 303° |
| 2026-05-06 16:11 | 29.82154 | 31.80881 | 38042 ft | 431 kts | 302° |
| 2026-05-06 16:12 | 29.85685 | 31.75357 | 38046 ft | 431 kts | 302° |
| 2026-05-06 16:12 | 29.89249 | 31.69805 | 38045 ft | 431 kts | 302° |
| 2026-05-06 16:13 | 29.92820 | 31.64255 | 38045 ft | 431 kts | 302° |
| 2026-05-06 16:13 | 29.96398 | 31.58710 | 38047 ft | 431 kts | 302° |
| 2026-05-06 16:14 | 29.99975 | 31.53156 | 38046 ft | 431 kts | 302° |
| 2026-05-06 16:14 | 30.03550 | 31.47602 | 38047 ft | 431 kts | 302° |
| 2026-05-06 16:15 | 30.07120 | 31.42045 | 38049 ft | 431 kts | 302° |
| 2026-05-06 16:15 | 30.11024 | 31.36759 | 38045 ft | 436 kts | 311° |
| 2026-05-06 16:16 | 30.15490 | 31.31997 | 38047 ft | 437 kts | 312° |
| 2026-05-06 16:16 | 30.19967 | 31.27245 | 38047 ft | 436 kts | 312° |
| 2026-05-06 16:17 | 30.24422 | 31.22480 | 38046 ft | 436 kts | 312° |
| 2026-05-06 16:17 | 30.28870 | 31.17699 | 38046 ft | 436 kts | 312° |
| 2026-05-06 16:18 | 30.33311 | 31.12915 | 38045 ft | 436 kts | 312° |
| 2026-05-06 16:18 | 30.37718 | 31.08161 | 38046 ft | 436 kts | 312° |
| 2026-05-06 16:19 | 30.42156 | 31.03367 | 38050 ft | 436 kts | 312° |
| 2026-05-06 16:19 | 30.46595 | 30.98570 | 38056 ft | 436 kts | 312° |
| 2026-05-06 16:20 | 30.51032 | 30.93767 | 38055 ft | 436 kts | 312° |
| 2026-05-06 16:20 | 30.55463 | 30.88962 | 38054 ft | 436 kts | 312° |
| 2026-05-06 16:21 | 30.59892 | 30.84155 | 38057 ft | 436 kts | 312° |
| 2026-05-06 16:21 | 30.64319 | 30.79347 | 38064 ft | 436 kts | 312° |
| 2026-05-06 16:22 | 30.68742 | 30.74530 | 38070 ft | 435 kts | 312° |
| 2026-05-06 16:22 | 30.73161 | 30.69716 | 38073 ft | 436 kts | 312° |
| 2026-05-06 16:23 | 30.77582 | 30.64893 | 38075 ft | 436 kts | 312° |
| 2026-05-06 16:23 | 30.82004 | 30.60066 | 38093 ft | 436 kts | 312° |
| 2026-05-06 16:24 | 30.86422 | 30.55229 | 38082 ft | 436 kts | 312° |
| 2026-05-06 16:24 | 30.90835 | 30.50391 | 38093 ft | 436 kts | 312° |
| 2026-05-06 16:25 | 30.95246 | 30.45552 | 38094 ft | 436 kts | 312° |
| 2026-05-06 16:25 | 30.99659 | 30.40705 | 38090 ft | 436 kts | 311° |
| 2026-05-06 16:26 | 31.04064 | 30.35861 | 38098 ft | 435 kts | 312° |
| 2026-05-06 16:26 | 31.08032 | 30.30679 | 38110 ft | 428 kts | 300° |
| 2026-05-06 16:27 | 31.10806 | 30.24601 | 38098 ft | 423 kts | 288° |
| 2026-05-06 16:27 | 31.12592 | 30.18081 | 38104 ft | 422 kts | 285° |
| 2026-05-06 16:28 | 31.14326 | 30.11529 | 38102 ft | 423 kts | 285° |
| 2026-05-06 16:28 | 31.16111 | 30.04967 | 38103 ft | 425 kts | 285° |
| 2026-05-06 16:29 | 31.17995 | 29.98423 | 38100 ft | 426 kts | 290° |
| 2026-05-06 16:29 | 31.20692 | 29.92220 | 38107 ft | 430 kts | 298° |
| 2026-05-06 16:30 | 31.23507 | 29.87406 | 38110 ft | 432 kts | 303° |
| 2026-05-06 16:30 | 31.27693 | 29.80794 | 38104 ft | 433 kts | 303° |
| 2026-05-06 16:31 | 31.31268 | 29.75123 | 38103 ft | 433 kts | 303° |
| 2026-05-06 16:31 | 31.34813 | 29.69442 | 38101 ft | 432 kts | 302° |
| 2026-05-06 16:32 | 31.38323 | 29.63793 | 38102 ft | 432 kts | 302° |
| 2026-05-06 16:32 | 31.41853 | 29.58105 | 38103 ft | 432 kts | 302° |
| 2026-05-06 16:33 | 31.45377 | 29.52418 | 38107 ft | 431 kts | 302° |
| 2026-05-06 16:34 | 31.50660 | 29.43876 | 38112 ft | 432 kts | 302° |
| 2026-05-06 16:34 | 31.54178 | 29.38177 | 38109 ft | 431 kts | 302° |
| 2026-05-06 16:35 | 31.57696 | 29.32471 | 38112 ft | 432 kts | 302° |
| 2026-05-06 16:35 | 31.61202 | 29.26754 | 38110 ft | 431 kts | 302° |
| 2026-05-06 16:36 | 31.64697 | 29.21016 | 38112 ft | 432 kts | 302° |
| 2026-05-06 16:36 | 31.68195 | 29.15270 | 38111 ft | 432 kts | 302° |
| 2026-05-06 16:37 | 31.71708 | 29.09592 | 38113 ft | 434 kts | 306° |
| 2026-05-06 16:37 | 31.75888 | 29.04445 | 38112 ft | 439 kts | 315° |
| 2026-05-06 16:38 | 31.80614 | 28.99878 | 38113 ft | 440 kts | 317° |
| 2026-05-06 16:38 | 31.85376 | 28.95350 | 38110 ft | 440 kts | 317° |
| 2026-05-06 16:39 | 31.90128 | 28.90799 | 38110 ft | 440 kts | 316° |
| 2026-05-06 16:39 | 31.94099 | 28.86974 | 38110 ft | 440 kts | 316° |
| 2026-05-06 16:40 | 31.99602 | 28.81652 | 38114 ft | 440 kts | 316° |
| 2026-05-06 16:40 | 32.04334 | 28.77068 | 38111 ft | 440 kts | 317° |
| 2026-05-06 16:41 | 32.08297 | 28.73223 | 38112 ft | 440 kts | 317° |
| 2026-05-06 16:41 | 32.13021 | 28.68638 | 38111 ft | 440 kts | 316° |
| 2026-05-06 16:42 | 32.17737 | 28.64049 | 38111 ft | 439 kts | 317° |
| 2026-05-06 16:42 | 32.22451 | 28.59460 | 38109 ft | 439 kts | 317° |
| 2026-05-06 16:43 | 32.27166 | 28.54862 | 38110 ft | 439 kts | 317° |
| 2026-05-06 16:43 | 32.31848 | 28.50288 | 38109 ft | 439 kts | 316° |
| 2026-05-06 16:44 | 32.36560 | 28.45681 | 38110 ft | 440 kts | 317° |
| 2026-05-06 16:44 | 32.41270 | 28.41071 | 38118 ft | 439 kts | 317° |
| 2026-05-06 16:45 | 32.45980 | 28.36456 | 38120 ft | 439 kts | 316° |
| 2026-05-06 16:45 | 32.50687 | 28.31831 | 38121 ft | 439 kts | 316° |
| 2026-05-06 16:46 | 32.55387 | 28.27209 | 38119 ft | 439 kts | 316° |
| 2026-05-06 16:46 | 32.60086 | 28.22582 | 38121 ft | 439 kts | 316° |
| 2026-05-06 16:47 | 32.64782 | 28.17951 | 38119 ft | 439 kts | 316° |
| 2026-05-06 16:47 | 32.69472 | 28.13321 | 38120 ft | 439 kts | 316° |
| 2026-05-06 16:48 | 32.74161 | 28.08682 | 38121 ft | 439 kts | 316° |
| 2026-05-06 16:48 | 32.78847 | 28.04042 | 38119 ft | 438 kts | 316° |
| 2026-05-06 16:49 | 32.83530 | 27.99401 | 38112 ft | 438 kts | 317° |
| 2026-05-06 16:49 | 32.88206 | 27.94754 | 38112 ft | 438 kts | 317° |
| 2026-05-06 16:50 | 32.92878 | 27.90108 | 38108 ft | 438 kts | 317° |
| 2026-05-06 16:50 | 32.97520 | 27.85487 | 38113 ft | 438 kts | 317° |
| 2026-05-06 16:51 | 33.02188 | 27.80830 | 38112 ft | 437 kts | 317° |
| 2026-05-06 16:51 | 33.06846 | 27.76178 | 38109 ft | 436 kts | 317° |
| 2026-05-06 16:52 | 33.11492 | 27.71532 | 38109 ft | 435 kts | 317° |
| 2026-05-06 16:52 | 33.16132 | 27.66885 | 38109 ft | 435 kts | 317° |
| 2026-05-06 16:53 | 33.20762 | 27.62240 | 38109 ft | 435 kts | 317° |
| 2026-05-06 16:53 | 33.25386 | 27.57594 | 38105 ft | 434 kts | 317° |
| 2026-05-06 16:54 | 33.30004 | 27.52948 | 38103 ft | 434 kts | 317° |
| 2026-05-06 16:54 | 33.34622 | 27.48296 | 38101 ft | 434 kts | 317° |
| 2026-05-06 16:55 | 33.39240 | 27.43637 | 38105 ft | 434 kts | 317° |
| 2026-05-06 16:55 | 33.43856 | 27.38974 | 38104 ft | 434 kts | 317° |
| 2026-05-06 16:56 | 33.48471 | 27.34305 | 38101 ft | 434 kts | 317° |
| 2026-05-06 16:56 | 33.53081 | 27.29634 | 38104 ft | 434 kts | 317° |
| 2026-05-06 16:57 | 33.57691 | 27.24956 | 38097 ft | 434 kts | 317° |
| 2026-05-06 16:57 | 33.62304 | 27.20268 | 38094 ft | 434 kts | 317° |
| 2026-05-06 16:58 | 33.66908 | 27.15582 | 38081 ft | 434 kts | 317° |
| 2026-05-06 16:58 | 33.71510 | 27.10891 | 38094 ft | 434 kts | 317° |
| 2026-05-06 16:59 | 33.76114 | 27.06195 | 38094 ft | 434 kts | 317° |
| 2026-05-06 16:59 | 33.80689 | 27.01520 | 38095 ft | 434 kts | 317° |
| 2026-05-06 17:00 | 33.85292 | 26.96807 | 38094 ft | 434 kts | 317° |
| 2026-05-06 17:00 | 33.89890 | 26.92090 | 38094 ft | 435 kts | 317° |
| 2026-05-06 17:01 | 33.94494 | 26.87364 | 38093 ft | 435 kts | 317° |
| 2026-05-06 17:01 | 33.99099 | 26.82629 | 38089 ft | 435 kts | 317° |
| 2026-05-06 17:02 | 34.03795 | 26.78025 | 38099 ft | 435 kts | 320° |
| 2026-05-06 17:02 | 34.08617 | 26.73624 | 38082 ft | 434 kts | 321° |
| 2026-05-06 17:03 | 34.13428 | 26.69227 | 38092 ft | 433 kts | 320° |
| 2026-05-06 17:03 | 34.18212 | 26.64802 | 38093 ft | 433 kts | 320° |
| 2026-05-06 17:04 | 34.22986 | 26.60356 | 38093 ft | 433 kts | 320° |
| 2026-05-06 17:04 | 34.27728 | 26.55929 | 38095 ft | 434 kts | 320° |
| 2026-05-06 17:05 | 34.32503 | 26.51466 | 38093 ft | 434 kts | 320° |
| 2026-05-06 17:05 | 34.37277 | 26.46999 | 38094 ft | 434 kts | 320° |
| 2026-05-06 17:06 | 34.42056 | 26.42519 | 38095 ft | 434 kts | 320° |
| 2026-05-06 17:06 | 34.46829 | 26.38039 | 38093 ft | 434 kts | 320° |
| 2026-05-06 17:07 | 34.51603 | 26.33549 | 38096 ft | 434 kts | 320° |
| 2026-05-06 17:07 | 34.56371 | 26.29064 | 38093 ft | 434 kts | 320° |
| 2026-05-06 17:08 | 34.61143 | 26.24566 | 38096 ft | 434 kts | 320° |
| 2026-05-06 17:08 | 34.65912 | 26.20065 | 38090 ft | 434 kts | 320° |
| 2026-05-06 17:09 | 34.70678 | 26.15557 | 38092 ft | 434 kts | 320° |
| 2026-05-06 17:09 | 34.75437 | 26.11050 | 38090 ft | 433 kts | 320° |
| 2026-05-06 17:10 | 34.80187 | 26.06545 | 38093 ft | 433 kts | 320° |
| 2026-05-06 17:10 | 34.84932 | 26.02037 | 38086 ft | 432 kts | 320° |
| 2026-05-06 17:11 | 34.89668 | 25.97533 | 38089 ft | 432 kts | 320° |
| 2026-05-06 17:11 | 34.94403 | 25.93020 | 38094 ft | 432 kts | 320° |
| 2026-05-06 17:12 | 34.99112 | 25.88528 | 38088 ft | 433 kts | 320° |
| 2026-05-06 17:12 | 35.03856 | 25.83992 | 38091 ft | 433 kts | 320° |
| 2026-05-06 17:13 | 35.08597 | 25.79456 | 38100 ft | 433 kts | 320° |
| 2026-05-06 17:13 | 35.13334 | 25.74906 | 38104 ft | 433 kts | 320° |
| 2026-05-06 17:14 | 35.18059 | 25.70345 | 38100 ft | 432 kts | 320° |
| 2026-05-06 17:14 | 35.22772 | 25.65798 | 38102 ft | 431 kts | 320° |
| 2026-05-06 17:15 | 35.27486 | 25.61261 | 38095 ft | 431 kts | 320° |
| 2026-05-06 17:15 | 35.32187 | 25.56728 | 38101 ft | 430 kts | 320° |
| 2026-05-06 17:16 | 35.36892 | 25.52185 | 38098 ft | 430 kts | 320° |
| 2026-05-06 17:16 | 35.41559 | 25.47673 | 38102 ft | 430 kts | 320° |
| 2026-05-06 17:17 | 35.46252 | 25.43127 | 38101 ft | 430 kts | 320° |
| 2026-05-06 17:17 | 35.50943 | 25.38572 | 38104 ft | 430 kts | 320° |
| 2026-05-06 17:18 | 35.55630 | 25.34016 | 38102 ft | 430 kts | 320° |
| 2026-05-06 17:18 | 35.60319 | 25.29452 | 38099 ft | 430 kts | 320° |
| 2026-05-06 17:19 | 35.65007 | 25.24879 | 38105 ft | 431 kts | 320° |
| 2026-05-06 17:19 | 35.69704 | 25.20292 | 38100 ft | 431 kts | 320° |
| 2026-05-06 17:20 | 35.74407 | 25.15695 | 38094 ft | 432 kts | 320° |
| 2026-05-06 17:20 | 35.79109 | 25.11090 | 38092 ft | 433 kts | 320° |
| 2026-05-06 17:21 | 35.83819 | 25.06466 | 38094 ft | 432 kts | 320° |
| 2026-05-06 17:21 | 35.88521 | 25.01845 | 38082 ft | 432 kts | 320° |
| 2026-05-06 17:22 | 35.93227 | 24.97213 | 38090 ft | 433 kts | 320° |
| 2026-05-06 17:22 | 35.97901 | 24.92608 | 38080 ft | 433 kts | 320° |
| 2026-05-06 17:23 | 36.02603 | 24.87965 | 38093 ft | 432 kts | 320° |
| 2026-05-06 17:23 | 36.07292 | 24.83329 | 38076 ft | 431 kts | 320° |
| 2026-05-06 17:24 | 36.11965 | 24.78706 | 38080 ft | 430 kts | 320° |
| 2026-05-06 17:24 | 36.16630 | 24.74085 | 38080 ft | 429 kts | 320° |
| 2026-05-06 17:25 | 36.21291 | 24.69459 | 38080 ft | 430 kts | 320° |
| 2026-05-06 17:25 | 36.25958 | 24.64818 | 38084 ft | 430 kts | 320° |
| 2026-05-06 17:26 | 36.30632 | 24.60162 | 38094 ft | 431 kts | 320° |
| 2026-05-06 17:26 | 36.35309 | 24.55496 | 38080 ft | 432 kts | 320° |
| 2026-05-06 17:27 | 36.39994 | 24.50814 | 38091 ft | 432 kts | 320° |
| 2026-05-06 17:27 | 36.44680 | 24.46127 | 38078 ft | 433 kts | 320° |
| 2026-05-06 17:28 | 36.49364 | 24.41431 | 38093 ft | 434 kts | 320° |
| 2026-05-06 17:28 | 36.51715 | 24.39069 | 38245 ft | 435 kts | 320° |
| 2026-05-06 17:28 | 36.54032 | 24.36740 | 38476 ft | 434 kts | 320° |
| 2026-05-06 17:28 | 36.56377 | 24.34381 | 38685 ft | 433 kts | 320° |
| 2026-05-06 17:29 | 36.58717 | 24.32023 | 38892 ft | 433 kts | 320° |
| 2026-05-06 17:29 | 36.61057 | 24.29663 | 39082 ft | 433 kts | 320° |
| 2026-05-06 17:29 | 36.62639 | 24.28067 | 39198 ft | 433 kts | 320° |
| 2026-05-06 17:29 | 36.65740 | 24.24935 | 39409 ft | 434 kts | 320° |
| 2026-05-06 17:30 | 36.68083 | 24.22568 | 39592 ft | 434 kts | 320° |
| 2026-05-06 17:30 | 36.70436 | 24.20187 | 39749 ft | 435 kts | 320° |
| 2026-05-06 17:30 | 36.72783 | 24.17812 | 39878 ft | 436 kts | 319° |
| 2026-05-06 17:31 | 36.76734 | 24.13809 | 40011 ft | 438 kts | 319° |
| 2026-05-06 17:31 | 36.81471 | 24.09001 | 40091 ft | 439 kts | 319° |
| 2026-05-06 17:32 | 36.86203 | 24.04189 | 40093 ft | 438 kts | 319° |
| 2026-05-06 17:32 | 36.90927 | 23.99380 | 40092 ft | 438 kts | 319° |
| 2026-05-06 17:33 | 36.95646 | 23.94573 | 40086 ft | 438 kts | 319° |
| 2026-05-06 17:33 | 37.00330 | 23.89797 | 40088 ft | 438 kts | 319° |
| 2026-05-06 17:34 | 37.05050 | 23.84975 | 40084 ft | 438 kts | 319° |
| 2026-05-06 17:34 | 37.09769 | 23.80146 | 40084 ft | 438 kts | 319° |
| 2026-05-06 17:35 | 37.14484 | 23.75312 | 40083 ft | 438 kts | 319° |
| 2026-05-06 17:35 | 37.19205 | 23.70464 | 40085 ft | 438 kts | 319° |
| 2026-05-06 17:36 | 37.26274 | 23.63189 | 40073 ft | 438 kts | 319° |
| 2026-05-06 17:36 | 37.30982 | 23.58333 | 40077 ft | 438 kts | 319° |
| 2026-05-06 17:37 | 37.35686 | 23.53474 | 40080 ft | 438 kts | 319° |
| 2026-05-06 17:37 | 37.40388 | 23.48609 | 40060 ft | 438 kts | 319° |
| 2026-05-06 17:38 | 37.45087 | 23.43739 | 40062 ft | 437 kts | 319° |
| 2026-05-06 17:38 | 37.49785 | 23.38861 | 40075 ft | 438 kts | 319° |
| 2026-05-06 17:39 | 37.54478 | 23.33981 | 40057 ft | 438 kts | 319° |
| 2026-05-06 17:39 | 37.59174 | 23.29090 | 40057 ft | 438 kts | 319° |
| 2026-05-06 17:40 | 37.63865 | 23.24194 | 40059 ft | 438 kts | 319° |
| 2026-05-06 17:40 | 37.68560 | 23.19287 | 40059 ft | 438 kts | 319° |
| 2026-05-06 17:41 | 37.73253 | 23.14372 | 40055 ft | 438 kts | 319° |
| 2026-05-06 17:41 | 37.77947 | 23.09449 | 40051 ft | 439 kts | 319° |
| 2026-05-06 17:42 | 37.82644 | 23.04514 | 40056 ft | 439 kts | 319° |
| 2026-05-06 17:42 | 37.87346 | 22.99565 | 40053 ft | 440 kts | 319° |
| 2026-05-06 17:43 | 37.92049 | 22.94607 | 40057 ft | 440 kts | 319° |
| 2026-05-06 17:43 | 37.96665 | 22.89502 | 40054 ft | 440 kts | 316° |
| 2026-05-06 17:44 | 38.01151 | 22.84220 | 40060 ft | 440 kts | 316° |
| 2026-05-06 17:44 | 38.05632 | 22.78981 | 40056 ft | 441 kts | 316° |
| 2026-05-06 17:45 | 38.10157 | 22.73729 | 40065 ft | 441 kts | 316° |
| 2026-05-06 17:45 | 38.14684 | 22.68468 | 40054 ft | 441 kts | 316° |
| 2026-05-06 17:46 | 38.19212 | 22.63198 | 40053 ft | 441 kts | 316° |
| 2026-05-06 17:46 | 38.23739 | 22.57920 | 40077 ft | 442 kts | 316° |
| 2026-05-06 17:47 | 38.28266 | 22.52632 | 40059 ft | 442 kts | 316° |
| 2026-05-06 17:47 | 38.32793 | 22.47334 | 40061 ft | 442 kts | 316° |
| 2026-05-06 17:48 | 38.37320 | 22.42026 | 40055 ft | 443 kts | 316° |
| 2026-05-06 17:48 | 38.41820 | 22.36740 | 40057 ft | 443 kts | 316° |
| 2026-05-06 17:49 | 38.46348 | 22.31411 | 40076 ft | 443 kts | 316° |
| 2026-05-06 17:49 | 38.50873 | 22.26078 | 40058 ft | 443 kts | 316° |
| 2026-05-06 17:50 | 38.55404 | 22.20727 | 40077 ft | 443 kts | 316° |
| 2026-05-06 17:50 | 38.59930 | 22.15374 | 40053 ft | 443 kts | 316° |
| 2026-05-06 17:51 | 38.64456 | 22.10013 | 40056 ft | 444 kts | 316° |
| 2026-05-06 17:51 | 38.68979 | 22.04645 | 40079 ft | 443 kts | 316° |
| 2026-05-06 17:52 | 38.73498 | 21.99270 | 40079 ft | 443 kts | 316° |
| 2026-05-06 17:52 | 38.78012 | 21.93892 | 40078 ft | 443 kts | 316° |
| 2026-05-06 17:53 | 38.82496 | 21.88539 | 40076 ft | 444 kts | 316° |
| 2026-05-06 17:53 | 38.87013 | 21.83138 | 40078 ft | 444 kts | 315° |
| 2026-05-06 17:54 | 38.91530 | 21.77727 | 40074 ft | 444 kts | 315° |
| 2026-05-06 17:54 | 38.96040 | 21.72315 | 40082 ft | 444 kts | 315° |
| 2026-05-06 17:55 | 39.00550 | 21.66893 | 40061 ft | 444 kts | 315° |
| 2026-05-06 17:55 | 39.05058 | 21.61463 | 40083 ft | 444 kts | 315° |
| 2026-05-06 17:56 | 39.09563 | 21.56026 | 40064 ft | 444 kts | 315° |
| 2026-05-06 17:56 | 39.14059 | 21.50590 | 40087 ft | 444 kts | 315° |
| 2026-05-06 17:57 | 39.18557 | 21.45141 | 40094 ft | 443 kts | 315° |
| 2026-05-06 17:57 | 39.23044 | 21.39697 | 40095 ft | 443 kts | 315° |
| 2026-05-06 17:58 | 39.27529 | 21.34244 | 40087 ft | 443 kts | 315° |
| 2026-05-06 17:58 | 39.32007 | 21.28790 | 40095 ft | 443 kts | 315° |
| 2026-05-06 17:59 | 39.36482 | 21.23330 | 40088 ft | 442 kts | 315° |
| 2026-05-06 17:59 | 39.40955 | 21.17862 | 40092 ft | 442 kts | 315° |
| 2026-05-06 18:00 | 39.45420 | 21.12393 | 40111 ft | 442 kts | 315° |
| 2026-05-06 18:00 | 39.49861 | 21.06943 | 40102 ft | 443 kts | 315° |
| 2026-05-06 18:01 | 39.54332 | 21.01446 | 40100 ft | 443 kts | 314° |
| 2026-05-06 18:01 | 39.58798 | 20.95946 | 40105 ft | 443 kts | 314° |
| 2026-05-06 18:02 | 39.63268 | 20.90430 | 40101 ft | 443 kts | 314° |
| 2026-05-06 18:02 | 39.67734 | 20.84909 | 40100 ft | 443 kts | 314° |
| 2026-05-06 18:03 | 39.72419 | 20.79709 | 40105 ft | 445 kts | 321° |
| 2026-05-06 18:03 | 39.77448 | 20.75005 | 40102 ft | 445 kts | 322° |
| 2026-05-06 18:04 | 39.82480 | 20.70310 | 40101 ft | 446 kts | 321° |
| 2026-05-06 18:04 | 39.87499 | 20.65573 | 40102 ft | 446 kts | 321° |
| 2026-05-06 18:05 | 39.92516 | 20.60812 | 40102 ft | 446 kts | 321° |
| 2026-05-06 18:05 | 39.97520 | 20.56053 | 40103 ft | 445 kts | 321° |
| 2026-05-06 18:06 | 40.02519 | 20.51291 | 40090 ft | 444 kts | 321° |
| 2026-05-06 18:06 | 40.07470 | 20.46568 | 40092 ft | 443 kts | 321° |
| 2026-05-06 18:07 | 40.12437 | 20.41799 | 40099 ft | 443 kts | 321° |
| 2026-05-06 18:07 | 40.17404 | 20.37014 | 40086 ft | 443 kts | 321° |
| 2026-05-06 18:08 | 40.22362 | 20.32230 | 40092 ft | 443 kts | 321° |
| 2026-05-06 18:08 | 40.27321 | 20.27436 | 40093 ft | 443 kts | 321° |
| 2026-05-06 18:09 | 40.32277 | 20.22638 | 40094 ft | 443 kts | 321° |
| 2026-05-06 18:09 | 40.37233 | 20.17831 | 40093 ft | 443 kts | 321° |
| 2026-05-06 18:10 | 40.42194 | 20.13009 | 40094 ft | 444 kts | 321° |
| 2026-05-06 18:10 | 40.47156 | 20.08177 | 40090 ft | 444 kts | 321° |
| 2026-05-06 18:11 | 40.51275 | 20.04160 | 40096 ft | 444 kts | 321° |
| 2026-05-06 18:11 | 40.57074 | 19.98491 | 40087 ft | 444 kts | 321° |
| 2026-05-06 18:12 | 40.62031 | 19.93629 | 40091 ft | 444 kts | 321° |
| 2026-05-06 18:12 | 40.66944 | 19.88798 | 40087 ft | 444 kts | 321° |
| 2026-05-06 18:13 | 40.71885 | 19.83932 | 40087 ft | 443 kts | 321° |
| 2026-05-06 18:13 | 40.76826 | 19.79055 | 40081 ft | 444 kts | 320° |
| 2026-05-06 18:14 | 40.81765 | 19.74173 | 40079 ft | 443 kts | 320° |
| 2026-05-06 18:14 | 40.86698 | 19.69287 | 40066 ft | 443 kts | 320° |
| 2026-05-06 18:15 | 40.91622 | 19.64400 | 40065 ft | 443 kts | 320° |
| 2026-05-06 18:15 | 40.96540 | 19.59510 | 40076 ft | 442 kts | 320° |
| 2026-05-06 18:16 | 41.01460 | 19.54608 | 40082 ft | 442 kts | 320° |
| 2026-05-06 18:16 | 41.06377 | 19.49699 | 40078 ft | 443 kts | 320° |
| 2026-05-06 18:17 | 41.11297 | 19.44779 | 40075 ft | 443 kts | 320° |
| 2026-05-06 18:17 | 41.16215 | 19.39852 | 40079 ft | 443 kts | 320° |
| 2026-05-06 18:18 | 41.21130 | 19.34918 | 40080 ft | 443 kts | 320° |
| 2026-05-06 18:18 | 41.26039 | 19.29979 | 40075 ft | 443 kts | 320° |
| 2026-05-06 18:19 | 41.30913 | 19.25067 | 40057 ft | 443 kts | 320° |
| 2026-05-06 18:19 | 41.35815 | 19.20116 | 40077 ft | 443 kts | 320° |
| 2026-05-06 18:20 | 41.40718 | 19.15155 | 40077 ft | 442 kts | 320° |
| 2026-05-06 18:20 | 41.45618 | 19.10189 | 40079 ft | 442 kts | 320° |
| 2026-05-06 18:21 | 41.50508 | 19.05209 | 40057 ft | 443 kts | 320° |
| 2026-05-06 18:21 | 41.55394 | 19.00213 | 40077 ft | 442 kts | 320° |
| 2026-05-06 18:22 | 41.59455 | 18.96053 | 40080 ft | 442 kts | 319° |
| 2026-05-06 18:22 | 41.64335 | 18.91047 | 40059 ft | 442 kts | 319° |
| 2026-05-06 18:23 | 41.69210 | 18.86037 | 40078 ft | 442 kts | 319° |
| 2026-05-06 18:23 | 41.74083 | 18.81019 | 40081 ft | 442 kts | 319° |
| 2026-05-06 18:24 | 41.78948 | 18.76000 | 40064 ft | 441 kts | 319° |
| 2026-05-06 18:24 | 41.83810 | 18.70973 | 40076 ft | 441 kts | 319° |
| 2026-05-06 18:25 | 41.88666 | 18.65941 | 40082 ft | 441 kts | 319° |
| 2026-05-06 18:25 | 41.93512 | 18.60911 | 40076 ft | 440 kts | 319° |
| 2026-05-06 18:26 | 41.98355 | 18.55875 | 40060 ft | 440 kts | 319° |
| 2026-05-06 18:26 | 42.02980 | 18.50546 | 40065 ft | 436 kts | 310° |
| 2026-05-06 18:27 | 42.07109 | 18.44570 | 40078 ft | 436 kts | 310° |
| 2026-05-06 18:27 | 42.11214 | 18.38557 | 40077 ft | 436 kts | 310° |
| 2026-05-06 18:28 | 42.15330 | 18.32550 | 40077 ft | 437 kts | 310° |
| 2026-05-06 18:28 | 42.19465 | 18.26530 | 40059 ft | 437 kts | 310° |
| 2026-05-06 18:29 | 42.23598 | 18.20510 | 40067 ft | 438 kts | 310° |
| 2026-05-06 18:29 | 42.27733 | 18.14475 | 40077 ft | 438 kts | 310° |
| 2026-05-06 18:30 | 42.31860 | 18.08438 | 40079 ft | 438 kts | 310° |
| 2026-05-06 18:30 | 42.35989 | 18.02385 | 40076 ft | 438 kts | 310° |
| 2026-05-06 18:31 | 42.40110 | 17.96332 | 40076 ft | 438 kts | 310° |
| 2026-05-06 18:31 | 42.44231 | 17.90265 | 40079 ft | 437 kts | 309° |
| 2026-05-06 18:32 | 42.48346 | 17.84194 | 40080 ft | 437 kts | 309° |
| 2026-05-06 18:32 | 42.52460 | 17.78113 | 40075 ft | 438 kts | 309° |
| 2026-05-06 18:33 | 42.56571 | 17.72023 | 40076 ft | 438 kts | 309° |
| 2026-05-06 18:33 | 42.60681 | 17.65922 | 40074 ft | 438 kts | 309° |
| 2026-05-06 18:34 | 42.64791 | 17.59808 | 40063 ft | 438 kts | 309° |
| 2026-05-06 18:34 | 42.68903 | 17.53678 | 40055 ft | 439 kts | 309° |
| 2026-05-06 18:35 | 42.72987 | 17.47575 | 40050 ft | 440 kts | 309° |
| 2026-05-06 18:35 | 42.77077 | 17.41453 | 40061 ft | 440 kts | 309° |
| 2026-05-06 18:36 | 42.81193 | 17.35278 | 40060 ft | 441 kts | 309° |
| 2026-05-06 18:36 | 42.85311 | 17.29087 | 40047 ft | 441 kts | 308° |
| 2026-05-06 18:37 | 42.89424 | 17.22890 | 40047 ft | 441 kts | 308° |
| 2026-05-06 18:37 | 42.93512 | 17.16717 | 40052 ft | 441 kts | 308° |
| 2026-05-06 18:38 | 42.97623 | 17.10495 | 40054 ft | 441 kts | 308° |
| 2026-05-06 18:38 | 43.01733 | 17.04263 | 40052 ft | 442 kts | 308° |
| 2026-05-06 18:39 | 43.05845 | 16.98013 | 40042 ft | 442 kts | 308° |
| 2026-05-06 18:40 | 43.12004 | 16.88629 | 40043 ft | 442 kts | 308° |
| 2026-05-06 18:40 | 43.16106 | 16.82361 | 40049 ft | 442 kts | 308° |
| 2026-05-06 18:41 | 43.20202 | 16.76087 | 40046 ft | 441 kts | 307° |
| 2026-05-06 18:41 | 43.24290 | 16.69814 | 40046 ft | 441 kts | 307° |
| 2026-05-06 18:42 | 43.28373 | 16.63533 | 40048 ft | 441 kts | 307° |
| 2026-05-06 18:42 | 43.32455 | 16.57241 | 40045 ft | 441 kts | 307° |
| 2026-05-06 18:43 | 43.36532 | 16.50943 | 40053 ft | 441 kts | 307° |
| 2026-05-06 18:43 | 43.40604 | 16.44638 | 40033 ft | 441 kts | 307° |
| 2026-05-06 18:44 | 43.44673 | 16.38322 | 40029 ft | 441 kts | 307° |
| 2026-05-06 18:44 | 43.48710 | 16.32046 | 40026 ft | 441 kts | 307° |
| 2026-05-06 18:45 | 43.52607 | 16.25491 | 40014 ft | 438 kts | 303° |
| 2026-05-06 18:45 | 43.56328 | 16.18835 | 40017 ft | 438 kts | 303° |
| 2026-05-06 18:46 | 43.60035 | 16.12175 | 40021 ft | 438 kts | 303° |
| 2026-05-06 18:46 | 43.63754 | 16.05514 | 40010 ft | 438 kts | 303° |
| 2026-05-06 18:47 | 43.67448 | 15.98905 | 40020 ft | 437 kts | 303° |
| 2026-05-06 18:47 | 43.71164 | 15.92246 | 40017 ft | 438 kts | 302° |
| 2026-05-06 18:48 | 43.74883 | 15.85567 | 40003 ft | 439 kts | 302° |
| 2026-05-06 18:48 | 43.78601 | 15.78874 | 40007 ft | 439 kts | 302° |
| 2026-05-06 18:49 | 43.82318 | 15.72167 | 40002 ft | 439 kts | 302° |
| 2026-05-06 18:49 | 43.86032 | 15.65449 | 39995 ft | 439 kts | 302° |
| 2026-05-06 18:50 | 43.89743 | 15.58722 | 40003 ft | 439 kts | 302° |
| 2026-05-06 18:50 | 43.93449 | 15.51989 | 39991 ft | 439 kts | 302° |
| 2026-05-06 18:51 | 43.97148 | 15.45251 | 39995 ft | 438 kts | 302° |
| 2026-05-06 18:51 | 44.00838 | 15.38517 | 39988 ft | 438 kts | 302° |
| 2026-05-06 18:52 | 44.04526 | 15.31767 | 39990 ft | 439 kts | 302° |
| 2026-05-06 18:52 | 44.08221 | 15.24988 | 39993 ft | 440 kts | 302° |
| 2026-05-06 18:53 | 44.11917 | 15.18197 | 39990 ft | 440 kts | 302° |
| 2026-05-06 18:53 | 44.15612 | 15.11392 | 39989 ft | 441 kts | 302° |
| 2026-05-06 18:54 | 44.19311 | 15.04559 | 39993 ft | 442 kts | 302° |
| 2026-05-06 18:54 | 44.23014 | 14.97699 | 39995 ft | 443 kts | 302° |
| 2026-05-06 18:55 | 44.26720 | 14.90818 | 39983 ft | 444 kts | 302° |
| 2026-05-06 18:55 | 44.30404 | 14.83963 | 39985 ft | 445 kts | 302° |
| 2026-05-06 18:56 | 44.34116 | 14.77047 | 39973 ft | 445 kts | 302° |
| 2026-05-06 18:56 | 44.37828 | 14.70110 | 39973 ft | 446 kts | 302° |
| 2026-05-06 18:57 | 44.41536 | 14.63163 | 39962 ft | 446 kts | 302° |
| 2026-05-06 18:57 | 44.45245 | 14.56198 | 39965 ft | 446 kts | 302° |
| 2026-05-06 18:58 | 44.48950 | 14.49226 | 39959 ft | 446 kts | 302° |
| 2026-05-06 18:58 | 44.52645 | 14.42256 | 39964 ft | 445 kts | 302° |
| 2026-05-06 18:59 | 44.56330 | 14.35284 | 39963 ft | 445 kts | 302° |
| 2026-05-06 18:59 | 44.60009 | 14.28305 | 39962 ft | 444 kts | 302° |
| 2026-05-06 19:00 | 44.63678 | 14.21329 | 39962 ft | 444 kts | 302° |
| 2026-05-06 19:00 | 44.67346 | 14.14342 | 39963 ft | 444 kts | 302° |
| 2026-05-06 19:01 | 44.71002 | 14.07357 | 39960 ft | 444 kts | 302° |
| 2026-05-06 19:01 | 44.74663 | 14.00350 | 39963 ft | 444 kts | 302° |
| 2026-05-06 19:02 | 44.78318 | 13.93330 | 39960 ft | 445 kts | 301° |
| 2026-05-06 19:02 | 44.81979 | 13.86287 | 39965 ft | 447 kts | 301° |
| 2026-05-06 19:03 | 44.85655 | 13.79195 | 39960 ft | 448 kts | 301° |
| 2026-05-06 19:03 | 44.89307 | 13.72134 | 39964 ft | 449 kts | 301° |
| 2026-05-06 19:04 | 44.92989 | 13.64997 | 39965 ft | 450 kts | 301° |
| 2026-05-06 19:04 | 44.96668 | 13.57848 | 39959 ft | 451 kts | 301° |
| 2026-05-06 19:05 | 45.00353 | 13.50670 | 39954 ft | 452 kts | 301° |
| 2026-05-06 19:05 | 45.04039 | 13.43470 | 39956 ft | 453 kts | 301° |
| 2026-05-06 19:06 | 45.07729 | 13.36248 | 39951 ft | 453 kts | 301° |
| 2026-05-06 19:06 | 45.11416 | 13.29011 | 39942 ft | 453 kts | 301° |
| 2026-05-06 19:07 | 45.15094 | 13.21773 | 39942 ft | 453 kts | 301° |
| 2026-05-06 19:07 | 45.18749 | 13.14561 | 39944 ft | 453 kts | 301° |
| 2026-05-06 19:08 | 45.21798 | 13.08530 | 39937 ft | 453 kts | 301° |
| 2026-05-06 19:08 | 45.25465 | 13.01263 | 39934 ft | 453 kts | 301° |
| 2026-05-06 19:09 | 45.29403 | 12.94229 | 39922 ft | 456 kts | 305° |
| 2026-05-06 19:09 | 45.33521 | 12.87357 | 39909 ft | 457 kts | 306° |
| 2026-05-06 19:10 | 45.37645 | 12.80464 | 39907 ft | 457 kts | 305° |
| 2026-05-06 19:10 | 45.41721 | 12.73592 | 39899 ft | 458 kts | 305° |
| 2026-05-06 19:11 | 45.45816 | 12.66646 | 39899 ft | 458 kts | 305° |
| 2026-05-06 19:11 | 45.49909 | 12.59681 | 39896 ft | 459 kts | 305° |
| 2026-05-06 19:12 | 45.54005 | 12.52692 | 39897 ft | 459 kts | 305° |
| 2026-05-06 19:12 | 45.58098 | 12.45688 | 39897 ft | 460 kts | 305° |
| 2026-05-06 19:13 | 45.62194 | 12.38675 | 39898 ft | 460 kts | 305° |
| 2026-05-06 19:13 | 45.66288 | 12.31635 | 39899 ft | 461 kts | 305° |
| 2026-05-06 19:14 | 45.70385 | 12.24578 | 39905 ft | 461 kts | 305° |
| 2026-05-06 19:14 | 45.74476 | 12.17514 | 39906 ft | 461 kts | 305° |
| 2026-05-06 19:15 | 45.78572 | 12.10421 | 39914 ft | 462 kts | 305° |
| 2026-05-06 19:15 | 45.82665 | 12.03319 | 39916 ft | 463 kts | 304° |
| 2026-05-06 19:16 | 45.86761 | 11.96189 | 39919 ft | 463 kts | 304° |
| 2026-05-06 19:16 | 45.90861 | 11.89035 | 39919 ft | 463 kts | 304° |
| 2026-05-06 19:17 | 45.94950 | 11.81887 | 39921 ft | 463 kts | 304° |
| 2026-05-06 19:17 | 45.99029 | 11.74731 | 39935 ft | 462 kts | 304° |
| 2026-05-06 19:18 | 46.03075 | 11.67614 | 39929 ft | 463 kts | 304° |
| 2026-05-06 19:18 | 46.07145 | 11.60437 | 39941 ft | 463 kts | 304° |
| 2026-05-06 19:19 | 46.11216 | 11.53241 | 39947 ft | 464 kts | 304° |
| 2026-05-06 19:19 | 46.15297 | 11.46013 | 39939 ft | 465 kts | 304° |
| 2026-05-06 19:20 | 46.19375 | 11.38770 | 39939 ft | 465 kts | 304° |
| 2026-05-06 19:20 | 46.23441 | 11.31530 | 39944 ft | 464 kts | 304° |
| 2026-05-06 19:21 | 46.27505 | 11.24271 | 39928 ft | 465 kts | 304° |
| 2026-05-06 19:21 | 46.31564 | 11.17003 | 39914 ft | 464 kts | 304° |
| 2026-05-06 19:22 | 46.35613 | 11.09727 | 39925 ft | 464 kts | 304° |
| 2026-05-06 19:22 | 46.39661 | 11.02444 | 39920 ft | 465 kts | 304° |
| 2026-05-06 19:23 | 46.43715 | 10.95131 | 39905 ft | 465 kts | 304° |
| 2026-05-06 19:23 | 46.47767 | 10.87804 | 39901 ft | 465 kts | 304° |
| 2026-05-06 19:24 | 46.51802 | 10.80481 | 39929 ft | 465 kts | 304° |
| 2026-05-06 19:24 | 46.55839 | 10.73131 | 39928 ft | 466 kts | 304° |
| 2026-05-06 19:25 | 46.59876 | 10.65765 | 39922 ft | 466 kts | 304° |
| 2026-05-06 19:25 | 46.63900 | 10.58406 | 39944 ft | 465 kts | 304° |
| 2026-05-06 19:26 | 46.67932 | 10.51018 | 39939 ft | 465 kts | 304° |
| 2026-05-06 19:26 | 46.71925 | 10.43612 | 39933 ft | 463 kts | 301° |
| 2026-05-06 19:27 | 46.75171 | 10.35571 | 39944 ft | 457 kts | 290° |
| 2026-05-06 19:27 | 46.77641 | 10.27024 | 39937 ft | 458 kts | 288° |
| 2026-05-06 19:28 | 46.80063 | 10.18413 | 39931 ft | 460 kts | 288° |
| 2026-05-06 19:28 | 46.82514 | 10.09769 | 39931 ft | 462 kts | 289° |
| 2026-05-06 19:29 | 46.84983 | 10.01098 | 39930 ft | 462 kts | 289° |
| 2026-05-06 19:29 | 46.87447 | 9.92434 | 39936 ft | 462 kts | 289° |
| 2026-05-06 19:30 | 46.89898 | 9.83800 | 39931 ft | 463 kts | 289° |
| 2026-05-06 19:30 | 46.92350 | 9.75096 | 39921 ft | 462 kts | 289° |
| 2026-05-06 19:31 | 46.94795 | 9.66410 | 39920 ft | 461 kts | 288° |
| 2026-05-06 19:31 | 46.98437 | 9.53414 | 39925 ft | 459 kts | 288° |
| 2026-05-06 19:32 | 47.00851 | 9.44757 | 39914 ft | 459 kts | 288° |
| 2026-05-06 19:32 | 47.03260 | 9.36084 | 39932 ft | 460 kts | 288° |
| 2026-05-06 19:33 | 47.05669 | 9.27385 | 39928 ft | 461 kts | 288° |
| 2026-05-06 19:33 | 47.08078 | 9.18658 | 39924 ft | 462 kts | 288° |
| 2026-05-06 19:34 | 47.10478 | 9.09911 | 39934 ft | 462 kts | 288° |
| 2026-05-06 19:34 | 47.12739 | 9.01659 | 39926 ft | 462 kts | 288° |
| 2026-05-06 19:35 | 47.13244 | 8.99812 | 39937 ft | 461 kts | 288° |
| 2026-05-06 19:35 | 47.15316 | 8.92215 | 39932 ft | 461 kts | 288° |
| 2026-05-06 19:36 | 47.17618 | 8.83420 | 39928 ft | 461 kts | 287° |
| 2026-05-06 19:36 | 47.19824 | 8.74604 | 39935 ft | 459 kts | 287° |
| 2026-05-06 19:37 | 47.22036 | 8.65790 | 39936 ft | 460 kts | 287° |
| 2026-05-06 19:37 | 47.23883 | 8.58445 | 39931 ft | 461 kts | 287° |
| 2026-05-06 19:38 | 47.26463 | 8.48156 | 39939 ft | 462 kts | 287° |
| 2026-05-06 19:38 | 47.28699 | 8.39282 | 39933 ft | 463 kts | 287° |
| 2026-05-06 19:39 | 47.30932 | 8.30381 | 39938 ft | 463 kts | 287° |
| 2026-05-06 19:39 | 47.33157 | 8.21471 | 39932 ft | 464 kts | 287° |
| 2026-05-06 19:40 | 47.35380 | 8.12537 | 39934 ft | 464 kts | 287° |
| 2026-05-06 19:40 | 47.37599 | 8.03598 | 39931 ft | 464 kts | 287° |
| 2026-05-06 19:41 | 47.39804 | 7.94664 | 39933 ft | 463 kts | 287° |
| 2026-05-06 19:41 | 47.42004 | 7.85724 | 39935 ft | 463 kts | 287° |
| 2026-05-06 19:42 | 47.44195 | 7.76781 | 39933 ft | 463 kts | 287° |
| 2026-05-06 19:42 | 47.46380 | 7.67808 | 39932 ft | 463 kts | 285° |
| 2026-05-06 19:43 | 47.48088 | 7.58675 | 39941 ft | 460 kts | 281° |